<?xml version="1.0" encoding="UTF-8" standalone="no" ?>
<gpx xmlns="http://www.topografix.com/GPX/1/1" xmlns:xsi="http://www.w3.org/2001/XMLSchema-instance" xsi:schemaLocation="http://www.topografix.com/GPX/1/1 http://www.topografix.com/GPX/1/1/gpx.xsd" version="1.1" creator="VisuGPX - https://www.visugpx.com">
  <metadata>
    <name>autour des celliers</name>
    <desc><![CDATA[petite ballade autour de rousset 
]]></desc>
  </metadata>
  <trk>
    <name><![CDATA[autour des celliers_1]]></name>
    <trkseg>
      <trkpt lat="44.46863" lon="6.22807">
        <ele>771</ele>
        <time>2020-04-04T14:21:22Z</time>
      </trkpt>
      <trkpt lat="44.46854" lon="6.22805">
        <ele>746</ele>
        <time>2020-04-04T14:21:28Z</time>
      </trkpt>
      <trkpt lat="44.46853" lon="6.22809">
        <ele>747</ele>
        <time>2020-04-04T14:21:33Z</time>
      </trkpt>
      <trkpt lat="44.46861" lon="6.22822">
        <ele>750</ele>
        <time>2020-04-04T14:21:39Z</time>
      </trkpt>
      <trkpt lat="44.46868" lon="6.22844">
        <ele>753</ele>
        <time>2020-04-04T14:21:45Z</time>
      </trkpt>
      <trkpt lat="44.46874" lon="6.22864">
        <ele>754</ele>
        <time>2020-04-04T14:21:51Z</time>
      </trkpt>
      <trkpt lat="44.46886" lon="6.22852">
        <ele>755</ele>
        <time>2020-04-04T14:21:57Z</time>
      </trkpt>
      <trkpt lat="44.46899" lon="6.2283">
        <ele>753</ele>
        <time>2020-04-04T14:22:02Z</time>
      </trkpt>
      <trkpt lat="44.46915" lon="6.22809">
        <ele>755</ele>
        <time>2020-04-04T14:22:08Z</time>
      </trkpt>
      <trkpt lat="44.4692" lon="6.228">
        <ele>751</ele>
        <time>2020-04-04T14:22:13Z</time>
      </trkpt>
      <trkpt lat="44.46919" lon="6.22782">
        <ele>753</ele>
        <time>2020-04-04T14:22:18Z</time>
      </trkpt>
      <trkpt lat="44.46913" lon="6.22765">
        <ele>754</ele>
        <time>2020-04-04T14:22:23Z</time>
      </trkpt>
      <trkpt lat="44.46904" lon="6.22743">
        <ele>759</ele>
        <time>2020-04-04T14:22:29Z</time>
      </trkpt>
      <trkpt lat="44.46903" lon="6.22723">
        <ele>762</ele>
        <time>2020-04-04T14:22:34Z</time>
      </trkpt>
      <trkpt lat="44.46908" lon="6.22703">
        <ele>764</ele>
        <time>2020-04-04T14:22:40Z</time>
      </trkpt>
      <trkpt lat="44.46907" lon="6.22693">
        <ele>766</ele>
        <time>2020-04-04T14:22:45Z</time>
      </trkpt>
      <trkpt lat="44.46907" lon="6.22692">
        <ele>765</ele>
        <time>2020-04-04T14:22:51Z</time>
      </trkpt>
      <trkpt lat="44.46911" lon="6.227">
        <ele>766</ele>
        <time>2020-04-04T14:22:57Z</time>
      </trkpt>
      <trkpt lat="44.46917" lon="6.22713">
        <ele>770</ele>
        <time>2020-04-04T14:23:03Z</time>
      </trkpt>
      <trkpt lat="44.46923" lon="6.22726">
        <ele>775</ele>
        <time>2020-04-04T14:23:09Z</time>
      </trkpt>
      <trkpt lat="44.46928" lon="6.22737">
        <ele>777</ele>
        <time>2020-04-04T14:23:15Z</time>
      </trkpt>
      <trkpt lat="44.46934" lon="6.2275">
        <ele>784</ele>
        <time>2020-04-04T14:23:21Z</time>
      </trkpt>
      <trkpt lat="44.46939" lon="6.22759">
        <ele>784</ele>
        <time>2020-04-04T14:23:26Z</time>
      </trkpt>
      <trkpt lat="44.46949" lon="6.22773">
        <ele>785</ele>
        <time>2020-04-04T14:23:32Z</time>
      </trkpt>
      <trkpt lat="44.46956" lon="6.22785">
        <ele>790</ele>
        <time>2020-04-04T14:23:37Z</time>
      </trkpt>
      <trkpt lat="44.46959" lon="6.22795">
        <ele>791</ele>
        <time>2020-04-04T14:23:42Z</time>
      </trkpt>
      <trkpt lat="44.46965" lon="6.2281">
        <ele>787</ele>
        <time>2020-04-04T14:23:48Z</time>
      </trkpt>
      <trkpt lat="44.46968" lon="6.2281">
        <ele>790</ele>
        <time>2020-04-04T14:23:53Z</time>
      </trkpt>
      <trkpt lat="44.46968" lon="6.22799">
        <ele>791</ele>
        <time>2020-04-04T14:23:59Z</time>
      </trkpt>
      <trkpt lat="44.46968" lon="6.22787">
        <ele>795</ele>
        <time>2020-04-04T14:24:05Z</time>
      </trkpt>
      <trkpt lat="44.46963" lon="6.22776">
        <ele>797</ele>
        <time>2020-04-04T14:24:10Z</time>
      </trkpt>
      <trkpt lat="44.46961" lon="6.2276">
        <ele>798</ele>
        <time>2020-04-04T14:24:16Z</time>
      </trkpt>
      <trkpt lat="44.4696" lon="6.22748">
        <ele>799</ele>
        <time>2020-04-04T14:24:21Z</time>
      </trkpt>
      <trkpt lat="44.46964" lon="6.22738">
        <ele>800</ele>
        <time>2020-04-04T14:24:27Z</time>
      </trkpt>
      <trkpt lat="44.46971" lon="6.22754">
        <ele>801</ele>
        <time>2020-04-04T14:24:35Z</time>
      </trkpt>
      <trkpt lat="44.46976" lon="6.22764">
        <ele>808</ele>
        <time>2020-04-04T14:24:41Z</time>
      </trkpt>
      <trkpt lat="44.46981" lon="6.2277">
        <ele>807</ele>
        <time>2020-04-04T14:24:46Z</time>
      </trkpt>
      <trkpt lat="44.46989" lon="6.22783">
        <ele>811</ele>
        <time>2020-04-04T14:24:51Z</time>
      </trkpt>
      <trkpt lat="44.46993" lon="6.22799">
        <ele>816</ele>
        <time>2020-04-04T14:24:57Z</time>
      </trkpt>
      <trkpt lat="44.47001" lon="6.22814">
        <ele>817</ele>
        <time>2020-04-04T14:25:03Z</time>
      </trkpt>
      <trkpt lat="44.47005" lon="6.22822">
        <ele>815</ele>
        <time>2020-04-04T14:25:08Z</time>
      </trkpt>
      <trkpt lat="44.47013" lon="6.22832">
        <ele>818</ele>
        <time>2020-04-04T14:25:14Z</time>
      </trkpt>
      <trkpt lat="44.47022" lon="6.2284">
        <ele>819</ele>
        <time>2020-04-04T14:25:20Z</time>
      </trkpt>
      <trkpt lat="44.47033" lon="6.22846">
        <ele>821</ele>
        <time>2020-04-04T14:25:26Z</time>
      </trkpt>
      <trkpt lat="44.47037" lon="6.22847">
        <ele>820</ele>
        <time>2020-04-04T14:25:32Z</time>
      </trkpt>
      <trkpt lat="44.47045" lon="6.22845">
        <ele>817</ele>
        <time>2020-04-04T14:25:38Z</time>
      </trkpt>
      <trkpt lat="44.47051" lon="6.22844">
        <ele>822</ele>
        <time>2020-04-04T14:25:44Z</time>
      </trkpt>
      <trkpt lat="44.47057" lon="6.22843">
        <ele>823</ele>
        <time>2020-04-04T14:25:50Z</time>
      </trkpt>
      <trkpt lat="44.47066" lon="6.22841">
        <ele>825</ele>
        <time>2020-04-04T14:25:55Z</time>
      </trkpt>
      <trkpt lat="44.47077" lon="6.22845">
        <ele>834</ele>
        <time>2020-04-04T14:26:01Z</time>
      </trkpt>
      <trkpt lat="44.47087" lon="6.22845">
        <ele>837</ele>
        <time>2020-04-04T14:26:07Z</time>
      </trkpt>
      <trkpt lat="44.47095" lon="6.22842">
        <ele>837</ele>
        <time>2020-04-04T14:26:12Z</time>
      </trkpt>
      <trkpt lat="44.47105" lon="6.22842">
        <ele>838</ele>
        <time>2020-04-04T14:26:18Z</time>
      </trkpt>
      <trkpt lat="44.47113" lon="6.22842">
        <ele>843</ele>
        <time>2020-04-04T14:26:23Z</time>
      </trkpt>
      <trkpt lat="44.47121" lon="6.2284">
        <ele>846</ele>
        <time>2020-04-04T14:26:29Z</time>
      </trkpt>
      <trkpt lat="44.47117" lon="6.22839">
        <ele>849</ele>
        <time>2020-04-04T14:26:34Z</time>
      </trkpt>
      <trkpt lat="44.47106" lon="6.22839">
        <ele>849</ele>
        <time>2020-04-04T14:26:40Z</time>
      </trkpt>
      <trkpt lat="44.47099" lon="6.22838">
        <ele>850</ele>
        <time>2020-04-04T14:26:45Z</time>
      </trkpt>
      <trkpt lat="44.47094" lon="6.22824">
        <ele>849</ele>
        <time>2020-04-04T14:26:51Z</time>
      </trkpt>
      <trkpt lat="44.4709" lon="6.2281">
        <ele>849</ele>
        <time>2020-04-04T14:26:57Z</time>
      </trkpt>
      <trkpt lat="44.47083" lon="6.22813">
        <ele>850</ele>
        <time>2020-04-04T14:27:02Z</time>
      </trkpt>
      <trkpt lat="44.47073" lon="6.22812">
        <ele>848</ele>
        <time>2020-04-04T14:27:08Z</time>
      </trkpt>
      <trkpt lat="44.47067" lon="6.22801">
        <ele>849</ele>
        <time>2020-04-04T14:27:13Z</time>
      </trkpt>
      <trkpt lat="44.47065" lon="6.22794">
        <ele>848</ele>
        <time>2020-04-04T14:27:19Z</time>
      </trkpt>
      <trkpt lat="44.47061" lon="6.22785">
        <ele>847</ele>
        <time>2020-04-04T14:27:24Z</time>
      </trkpt>
      <trkpt lat="44.47055" lon="6.22776">
        <ele>849</ele>
        <time>2020-04-04T14:27:29Z</time>
      </trkpt>
      <trkpt lat="44.47044" lon="6.22768">
        <ele>853</ele>
        <time>2020-04-04T14:27:35Z</time>
      </trkpt>
      <trkpt lat="44.47037" lon="6.2276">
        <ele>856</ele>
        <time>2020-04-04T14:27:41Z</time>
      </trkpt>
      <trkpt lat="44.47034" lon="6.22746">
        <ele>853</ele>
        <time>2020-04-04T14:27:47Z</time>
      </trkpt>
      <trkpt lat="44.47037" lon="6.22741">
        <ele>857</ele>
        <time>2020-04-04T14:27:53Z</time>
      </trkpt>
      <trkpt lat="44.4704" lon="6.22743">
        <ele>858</ele>
        <time>2020-04-04T14:27:59Z</time>
      </trkpt>
      <trkpt lat="44.47049" lon="6.2275">
        <ele>861</ele>
        <time>2020-04-04T14:28:05Z</time>
      </trkpt>
      <trkpt lat="44.47059" lon="6.22752">
        <ele>863</ele>
        <time>2020-04-04T14:28:11Z</time>
      </trkpt>
      <trkpt lat="44.47066" lon="6.22756">
        <ele>867</ele>
        <time>2020-04-04T14:28:17Z</time>
      </trkpt>
      <trkpt lat="44.47076" lon="6.22757">
        <ele>864</ele>
        <time>2020-04-04T14:28:23Z</time>
      </trkpt>
      <trkpt lat="44.47083" lon="6.22762">
        <ele>858</ele>
        <time>2020-04-04T14:28:28Z</time>
      </trkpt>
      <trkpt lat="44.47092" lon="6.22763">
        <ele>859</ele>
        <time>2020-04-04T14:28:34Z</time>
      </trkpt>
      <trkpt lat="44.47101" lon="6.22758">
        <ele>861</ele>
        <time>2020-04-04T14:28:40Z</time>
      </trkpt>
      <trkpt lat="44.4711" lon="6.22757">
        <ele>864</ele>
        <time>2020-04-04T14:28:46Z</time>
      </trkpt>
      <trkpt lat="44.47115" lon="6.22758">
        <ele>862</ele>
        <time>2020-04-04T14:28:51Z</time>
      </trkpt>
      <trkpt lat="44.47122" lon="6.22758">
        <ele>868</ele>
        <time>2020-04-04T14:28:56Z</time>
      </trkpt>
      <trkpt lat="44.4713" lon="6.22758">
        <ele>874</ele>
        <time>2020-04-04T14:29:02Z</time>
      </trkpt>
      <trkpt lat="44.47137" lon="6.2276">
        <ele>876</ele>
        <time>2020-04-04T14:29:08Z</time>
      </trkpt>
      <trkpt lat="44.47147" lon="6.22762">
        <ele>877</ele>
        <time>2020-04-04T14:29:13Z</time>
      </trkpt>
      <trkpt lat="44.47158" lon="6.22763">
        <ele>882</ele>
        <time>2020-04-04T14:29:19Z</time>
      </trkpt>
      <trkpt lat="44.47166" lon="6.2277">
        <ele>882</ele>
        <time>2020-04-04T14:29:25Z</time>
      </trkpt>
      <trkpt lat="44.47173" lon="6.22771">
        <ele>884</ele>
        <time>2020-04-04T14:29:30Z</time>
      </trkpt>
      <trkpt lat="44.47181" lon="6.22773">
        <ele>886</ele>
        <time>2020-04-04T14:29:35Z</time>
      </trkpt>
      <trkpt lat="44.47191" lon="6.22772">
        <ele>880</ele>
        <time>2020-04-04T14:29:41Z</time>
      </trkpt>
      <trkpt lat="44.472" lon="6.22775">
        <ele>880</ele>
        <time>2020-04-04T14:29:46Z</time>
      </trkpt>
      <trkpt lat="44.47213" lon="6.22777">
        <ele>879</ele>
        <time>2020-04-04T14:29:52Z</time>
      </trkpt>
      <trkpt lat="44.47222" lon="6.22776">
        <ele>882</ele>
        <time>2020-04-04T14:29:58Z</time>
      </trkpt>
      <trkpt lat="44.47226" lon="6.22784">
        <ele>887</ele>
        <time>2020-04-04T14:30:03Z</time>
      </trkpt>
      <trkpt lat="44.47233" lon="6.22789">
        <ele>889</ele>
        <time>2020-04-04T14:30:08Z</time>
      </trkpt>
      <trkpt lat="44.4724" lon="6.22797">
        <ele>889</ele>
        <time>2020-04-04T14:30:13Z</time>
      </trkpt>
      <trkpt lat="44.47248" lon="6.228">
        <ele>887</ele>
        <time>2020-04-04T14:30:19Z</time>
      </trkpt>
      <trkpt lat="44.47257" lon="6.22803">
        <ele>887</ele>
        <time>2020-04-04T14:30:25Z</time>
      </trkpt>
      <trkpt lat="44.47266" lon="6.22808">
        <ele>890</ele>
        <time>2020-04-04T14:30:30Z</time>
      </trkpt>
      <trkpt lat="44.47277" lon="6.22817">
        <ele>890</ele>
        <time>2020-04-04T14:30:36Z</time>
      </trkpt>
      <trkpt lat="44.47287" lon="6.22827">
        <ele>890</ele>
        <time>2020-04-04T14:30:42Z</time>
      </trkpt>
      <trkpt lat="44.47293" lon="6.22834">
        <ele>891</ele>
        <time>2020-04-04T14:30:48Z</time>
      </trkpt>
      <trkpt lat="44.47295" lon="6.22837">
        <ele>892</ele>
        <time>2020-04-04T14:30:53Z</time>
      </trkpt>
      <trkpt lat="44.47296" lon="6.22837">
        <ele>891</ele>
        <time>2020-04-04T14:30:59Z</time>
      </trkpt>
      <trkpt lat="44.473" lon="6.22843">
        <ele>894</ele>
        <time>2020-04-04T14:31:04Z</time>
      </trkpt>
      <trkpt lat="44.47305" lon="6.2285">
        <ele>895</ele>
        <time>2020-04-04T14:31:10Z</time>
      </trkpt>
      <trkpt lat="44.47308" lon="6.22856">
        <ele>897</ele>
        <time>2020-04-04T14:31:15Z</time>
      </trkpt>
      <trkpt lat="44.4731" lon="6.2286">
        <ele>896</ele>
        <time>2020-04-04T14:31:21Z</time>
      </trkpt>
      <trkpt lat="44.47313" lon="6.22861">
        <ele>892</ele>
        <time>2020-04-04T14:31:26Z</time>
      </trkpt>
      <trkpt lat="44.47313" lon="6.22862">
        <ele>893</ele>
        <time>2020-04-04T14:31:31Z</time>
      </trkpt>
      <trkpt lat="44.4732" lon="6.22868">
        <ele>898</ele>
        <time>2020-04-04T14:31:37Z</time>
      </trkpt>
      <trkpt lat="44.47329" lon="6.22876">
        <ele>894</ele>
        <time>2020-04-04T14:31:43Z</time>
      </trkpt>
      <trkpt lat="44.47338" lon="6.2288">
        <ele>898</ele>
        <time>2020-04-04T14:31:49Z</time>
      </trkpt>
      <trkpt lat="44.47345" lon="6.2288">
        <ele>897</ele>
        <time>2020-04-04T14:31:54Z</time>
      </trkpt>
      <trkpt lat="44.47355" lon="6.2288">
        <ele>899</ele>
        <time>2020-04-04T14:32:00Z</time>
      </trkpt>
      <trkpt lat="44.47365" lon="6.22878">
        <ele>893</ele>
        <time>2020-04-04T14:32:06Z</time>
      </trkpt>
      <trkpt lat="44.47379" lon="6.22875">
        <ele>895</ele>
        <time>2020-04-04T14:32:12Z</time>
      </trkpt>
      <trkpt lat="44.47392" lon="6.22873">
        <ele>891</ele>
        <time>2020-04-04T14:32:18Z</time>
      </trkpt>
      <trkpt lat="44.47403" lon="6.22869">
        <ele>896</ele>
        <time>2020-04-04T14:32:24Z</time>
      </trkpt>
      <trkpt lat="44.47416" lon="6.22867">
        <ele>895</ele>
        <time>2020-04-04T14:32:30Z</time>
      </trkpt>
      <trkpt lat="44.47428" lon="6.22868">
        <ele>894</ele>
        <time>2020-04-04T14:32:35Z</time>
      </trkpt>
      <trkpt lat="44.47436" lon="6.22871">
        <ele>894</ele>
        <time>2020-04-04T14:32:40Z</time>
      </trkpt>
      <trkpt lat="44.47442" lon="6.22883">
        <ele>899</ele>
        <time>2020-04-04T14:32:46Z</time>
      </trkpt>
      <trkpt lat="44.47452" lon="6.22893">
        <ele>898</ele>
        <time>2020-04-04T14:32:51Z</time>
      </trkpt>
      <trkpt lat="44.47464" lon="6.22901">
        <ele>898</ele>
        <time>2020-04-04T14:32:57Z</time>
      </trkpt>
      <trkpt lat="44.47474" lon="6.22911">
        <ele>899</ele>
        <time>2020-04-04T14:33:03Z</time>
      </trkpt>
      <trkpt lat="44.47483" lon="6.22921">
        <ele>903</ele>
        <time>2020-04-04T14:33:08Z</time>
      </trkpt>
      <trkpt lat="44.47497" lon="6.22932">
        <ele>897</ele>
        <time>2020-04-04T14:33:14Z</time>
      </trkpt>
      <trkpt lat="44.47513" lon="6.22933">
        <ele>898</ele>
        <time>2020-04-04T14:33:20Z</time>
      </trkpt>
      <trkpt lat="44.47527" lon="6.22931">
        <ele>896</ele>
        <time>2020-04-04T14:33:25Z</time>
      </trkpt>
      <trkpt lat="44.47541" lon="6.22928">
        <ele>895</ele>
        <time>2020-04-04T14:33:31Z</time>
      </trkpt>
      <trkpt lat="44.47551" lon="6.22924">
        <ele>895</ele>
        <time>2020-04-04T14:33:36Z</time>
      </trkpt>
      <trkpt lat="44.4756" lon="6.22922">
        <ele>895</ele>
        <time>2020-04-04T14:33:41Z</time>
      </trkpt>
      <trkpt lat="44.47574" lon="6.22915">
        <ele>893</ele>
        <time>2020-04-04T14:33:47Z</time>
      </trkpt>
      <trkpt lat="44.47589" lon="6.22909">
        <ele>897</ele>
        <time>2020-04-04T14:33:53Z</time>
      </trkpt>
      <trkpt lat="44.476" lon="6.22904">
        <ele>902</ele>
        <time>2020-04-04T14:33:59Z</time>
      </trkpt>
      <trkpt lat="44.47611" lon="6.22906">
        <ele>904</ele>
        <time>2020-04-04T14:34:05Z</time>
      </trkpt>
      <trkpt lat="44.47617" lon="6.2291">
        <ele>905</ele>
        <time>2020-04-04T14:34:10Z</time>
      </trkpt>
      <trkpt lat="44.47617" lon="6.22921">
        <ele>912</ele>
        <time>2020-04-04T14:34:16Z</time>
      </trkpt>
      <trkpt lat="44.47614" lon="6.22941">
        <ele>913</ele>
        <time>2020-04-04T14:34:22Z</time>
      </trkpt>
      <trkpt lat="44.47613" lon="6.22965">
        <ele>922</ele>
        <time>2020-04-04T14:34:28Z</time>
      </trkpt>
      <trkpt lat="44.47617" lon="6.22979">
        <ele>918</ele>
        <time>2020-04-04T14:34:33Z</time>
      </trkpt>
      <trkpt lat="44.47625" lon="6.22984">
        <ele>916</ele>
        <time>2020-04-04T14:34:39Z</time>
      </trkpt>
      <trkpt lat="44.47634" lon="6.22981">
        <ele>917</ele>
        <time>2020-04-04T14:34:45Z</time>
      </trkpt>
      <trkpt lat="44.4764" lon="6.22972">
        <ele>922</ele>
        <time>2020-04-04T14:34:50Z</time>
      </trkpt>
      <trkpt lat="44.47654" lon="6.22965">
        <ele>918</ele>
        <time>2020-04-04T14:34:56Z</time>
      </trkpt>
      <trkpt lat="44.47676" lon="6.22955">
        <ele>913</ele>
        <time>2020-04-04T14:35:01Z</time>
      </trkpt>
      <trkpt lat="44.47687" lon="6.22957">
        <ele>915</ele>
        <time>2020-04-04T14:35:06Z</time>
      </trkpt>
      <trkpt lat="44.47701" lon="6.22962">
        <ele>917</ele>
        <time>2020-04-04T14:35:12Z</time>
      </trkpt>
      <trkpt lat="44.47701" lon="6.22971">
        <ele>922</ele>
        <time>2020-04-04T14:35:17Z</time>
      </trkpt>
      <trkpt lat="44.477" lon="6.22985">
        <ele>928</ele>
        <time>2020-04-04T14:35:23Z</time>
      </trkpt>
      <trkpt lat="44.47699" lon="6.23001">
        <ele>928</ele>
        <time>2020-04-04T14:35:28Z</time>
      </trkpt>
      <trkpt lat="44.47695" lon="6.23023">
        <ele>932</ele>
        <time>2020-04-04T14:35:34Z</time>
      </trkpt>
      <trkpt lat="44.47688" lon="6.23042">
        <ele>935</ele>
        <time>2020-04-04T14:35:40Z</time>
      </trkpt>
      <trkpt lat="44.47685" lon="6.23058">
        <ele>935</ele>
        <time>2020-04-04T14:35:45Z</time>
      </trkpt>
      <trkpt lat="44.4768" lon="6.23077">
        <ele>932</ele>
        <time>2020-04-04T14:35:51Z</time>
      </trkpt>
      <trkpt lat="44.47678" lon="6.23087">
        <ele>928</ele>
        <time>2020-04-04T14:35:56Z</time>
      </trkpt>
      <trkpt lat="44.47686" lon="6.23083">
        <ele>929</ele>
        <time>2020-04-04T14:36:02Z</time>
      </trkpt>
      <trkpt lat="44.47692" lon="6.23079">
        <ele>925</ele>
        <time>2020-04-04T14:36:07Z</time>
      </trkpt>
      <trkpt lat="44.47696" lon="6.23069">
        <ele>928</ele>
        <time>2020-04-04T14:36:13Z</time>
      </trkpt>
      <trkpt lat="44.47704" lon="6.23057">
        <ele>929</ele>
        <time>2020-04-04T14:36:19Z</time>
      </trkpt>
      <trkpt lat="44.47715" lon="6.23048">
        <ele>929</ele>
        <time>2020-04-04T14:36:25Z</time>
      </trkpt>
      <trkpt lat="44.47726" lon="6.23041">
        <ele>930</ele>
        <time>2020-04-04T14:36:31Z</time>
      </trkpt>
      <trkpt lat="44.47737" lon="6.23038">
        <ele>927</ele>
        <time>2020-04-04T14:36:36Z</time>
      </trkpt>
      <trkpt lat="44.47749" lon="6.23034">
        <ele>924</ele>
        <time>2020-04-04T14:36:42Z</time>
      </trkpt>
      <trkpt lat="44.47758" lon="6.23036">
        <ele>930</ele>
        <time>2020-04-04T14:36:47Z</time>
      </trkpt>
      <trkpt lat="44.4777" lon="6.23035">
        <ele>934</ele>
        <time>2020-04-04T14:36:53Z</time>
      </trkpt>
      <trkpt lat="44.47781" lon="6.23024">
        <ele>936</ele>
        <time>2020-04-04T14:36:59Z</time>
      </trkpt>
      <trkpt lat="44.4779" lon="6.23019">
        <ele>937</ele>
        <time>2020-04-04T14:37:04Z</time>
      </trkpt>
      <trkpt lat="44.47802" lon="6.23013">
        <ele>938</ele>
        <time>2020-04-04T14:37:10Z</time>
      </trkpt>
      <trkpt lat="44.47817" lon="6.23015">
        <ele>939</ele>
        <time>2020-04-04T14:37:16Z</time>
      </trkpt>
      <trkpt lat="44.47829" lon="6.23038">
        <ele>937</ele>
        <time>2020-04-04T14:37:22Z</time>
      </trkpt>
      <trkpt lat="44.47832" lon="6.23056">
        <ele>939</ele>
        <time>2020-04-04T14:37:28Z</time>
      </trkpt>
      <trkpt lat="44.47839" lon="6.23063">
        <ele>943</ele>
        <time>2020-04-04T14:37:34Z</time>
      </trkpt>
      <trkpt lat="44.47848" lon="6.23071">
        <ele>947</ele>
        <time>2020-04-04T14:37:40Z</time>
      </trkpt>
      <trkpt lat="44.47853" lon="6.23087">
        <ele>953</ele>
        <time>2020-04-04T14:37:46Z</time>
      </trkpt>
      <trkpt lat="44.47852" lon="6.23108">
        <ele>955</ele>
        <time>2020-04-04T14:37:52Z</time>
      </trkpt>
      <trkpt lat="44.4785" lon="6.23141">
        <ele>951</ele>
        <time>2020-04-04T14:37:58Z</time>
      </trkpt>
      <trkpt lat="44.47844" lon="6.23183">
        <ele>952</ele>
        <time>2020-04-04T14:38:03Z</time>
      </trkpt>
      <trkpt lat="44.47847" lon="6.23198">
        <ele>951</ele>
        <time>2020-04-04T14:38:08Z</time>
      </trkpt>
      <trkpt lat="44.47861" lon="6.23194">
        <ele>950</ele>
        <time>2020-04-04T14:38:14Z</time>
      </trkpt>
      <trkpt lat="44.4788" lon="6.23192">
        <ele>950</ele>
        <time>2020-04-04T14:38:20Z</time>
      </trkpt>
      <trkpt lat="44.47898" lon="6.23183">
        <ele>950</ele>
        <time>2020-04-04T14:38:25Z</time>
      </trkpt>
      <trkpt lat="44.47918" lon="6.23147">
        <ele>952</ele>
        <time>2020-04-04T14:38:31Z</time>
      </trkpt>
      <trkpt lat="44.47937" lon="6.23133">
        <ele>949</ele>
        <time>2020-04-04T14:38:37Z</time>
      </trkpt>
      <trkpt lat="44.47956" lon="6.23132">
        <ele>950</ele>
        <time>2020-04-04T14:38:42Z</time>
      </trkpt>
      <trkpt lat="44.47971" lon="6.23132">
        <ele>946</ele>
        <time>2020-04-04T14:38:47Z</time>
      </trkpt>
      <trkpt lat="44.48002" lon="6.2313">
        <ele>954</ele>
        <time>2020-04-04T14:38:53Z</time>
      </trkpt>
      <trkpt lat="44.4802" lon="6.23129">
        <ele>961</ele>
        <time>2020-04-04T14:38:58Z</time>
      </trkpt>
      <trkpt lat="44.48048" lon="6.23127">
        <ele>960</ele>
        <time>2020-04-04T14:39:03Z</time>
      </trkpt>
      <trkpt lat="44.48071" lon="6.23128">
        <ele>952</ele>
        <time>2020-04-04T14:39:09Z</time>
      </trkpt>
      <trkpt lat="44.48089" lon="6.2313">
        <ele>953</ele>
        <time>2020-04-04T14:39:14Z</time>
      </trkpt>
      <trkpt lat="44.48106" lon="6.23138">
        <ele>952</ele>
        <time>2020-04-04T14:39:19Z</time>
      </trkpt>
      <trkpt lat="44.48121" lon="6.2315">
        <ele>955</ele>
        <time>2020-04-04T14:39:24Z</time>
      </trkpt>
      <trkpt lat="44.48138" lon="6.23164">
        <ele>958</ele>
        <time>2020-04-04T14:39:30Z</time>
      </trkpt>
      <trkpt lat="44.48151" lon="6.23173">
        <ele>957</ele>
        <time>2020-04-04T14:39:36Z</time>
      </trkpt>
      <trkpt lat="44.48162" lon="6.23182">
        <ele>960</ele>
        <time>2020-04-04T14:39:42Z</time>
      </trkpt>
      <trkpt lat="44.48166" lon="6.23186">
        <ele>956</ele>
        <time>2020-04-04T14:39:48Z</time>
      </trkpt>
      <trkpt lat="44.48168" lon="6.23188">
        <ele>954</ele>
        <time>2020-04-04T14:39:54Z</time>
      </trkpt>
      <trkpt lat="44.48168" lon="6.23189">
        <ele>953</ele>
        <time>2020-04-04T14:39:59Z</time>
      </trkpt>
      <trkpt lat="44.48168" lon="6.23189">
        <ele>953</ele>
        <time>2020-04-04T14:40:04Z</time>
      </trkpt>
      <trkpt lat="44.48167" lon="6.23197">
        <ele>956</ele>
        <time>2020-04-04T14:40:09Z</time>
      </trkpt>
      <trkpt lat="44.48169" lon="6.23202">
        <ele>961</ele>
        <time>2020-04-04T14:40:14Z</time>
      </trkpt>
      <trkpt lat="44.48169" lon="6.23204">
        <ele>962</ele>
        <time>2020-04-04T14:40:19Z</time>
      </trkpt>
      <trkpt lat="44.48169" lon="6.23204">
        <ele>962</ele>
        <time>2020-04-04T14:40:25Z</time>
      </trkpt>
      <trkpt lat="44.48169" lon="6.23204">
        <ele>963</ele>
        <time>2020-04-04T14:40:30Z</time>
      </trkpt>
      <trkpt lat="44.48169" lon="6.23204">
        <ele>963</ele>
        <time>2020-04-04T14:40:36Z</time>
      </trkpt>
      <trkpt lat="44.48169" lon="6.23204">
        <ele>963</ele>
        <time>2020-04-04T14:40:42Z</time>
      </trkpt>
      <trkpt lat="44.48169" lon="6.23204">
        <ele>963</ele>
        <time>2020-04-04T14:40:47Z</time>
      </trkpt>
      <trkpt lat="44.4817" lon="6.23208">
        <ele>963</ele>
        <time>2020-04-04T14:40:55Z</time>
      </trkpt>
      <trkpt lat="44.4817" lon="6.23207">
        <ele>960</ele>
        <time>2020-04-04T14:41:00Z</time>
      </trkpt>
      <trkpt lat="44.4817" lon="6.23207">
        <ele>960</ele>
        <time>2020-04-04T14:41:05Z</time>
      </trkpt>
      <trkpt lat="44.4817" lon="6.23207">
        <ele>960</ele>
        <time>2020-04-04T14:41:11Z</time>
      </trkpt>
      <trkpt lat="44.4817" lon="6.23207">
        <ele>959</ele>
        <time>2020-04-04T14:41:16Z</time>
      </trkpt>
      <trkpt lat="44.4817" lon="6.23207">
        <ele>959</ele>
        <time>2020-04-04T14:41:22Z</time>
      </trkpt>
      <trkpt lat="44.4817" lon="6.23207">
        <ele>959</ele>
        <time>2020-04-04T14:41:27Z</time>
      </trkpt>
      <trkpt lat="44.48171" lon="6.23206">
        <ele>957</ele>
        <time>2020-04-04T14:41:33Z</time>
      </trkpt>
      <trkpt lat="44.48171" lon="6.23207">
        <ele>956</ele>
        <time>2020-04-04T14:41:38Z</time>
      </trkpt>
      <trkpt lat="44.48171" lon="6.23207">
        <ele>956</ele>
        <time>2020-04-04T14:41:44Z</time>
      </trkpt>
      <trkpt lat="44.48174" lon="6.23207">
        <ele>961</ele>
        <time>2020-04-04T14:41:49Z</time>
      </trkpt>
      <trkpt lat="44.48174" lon="6.23207">
        <ele>964</ele>
        <time>2020-04-04T14:41:55Z</time>
      </trkpt>
      <trkpt lat="44.48174" lon="6.23208">
        <ele>965</ele>
        <time>2020-04-04T14:42:00Z</time>
      </trkpt>
      <trkpt lat="44.48174" lon="6.23208">
        <ele>965</ele>
        <time>2020-04-04T14:42:05Z</time>
      </trkpt>
      <trkpt lat="44.48174" lon="6.23208">
        <ele>965</ele>
        <time>2020-04-04T14:42:10Z</time>
      </trkpt>
      <trkpt lat="44.48174" lon="6.23208">
        <ele>965</ele>
        <time>2020-04-04T14:42:16Z</time>
      </trkpt>
      <trkpt lat="44.48174" lon="6.23208">
        <ele>965</ele>
        <time>2020-04-04T14:42:22Z</time>
      </trkpt>
      <trkpt lat="44.48174" lon="6.23207">
        <ele>965</ele>
        <time>2020-04-04T14:42:28Z</time>
      </trkpt>
      <trkpt lat="44.48174" lon="6.23207">
        <ele>965</ele>
        <time>2020-04-04T14:42:34Z</time>
      </trkpt>
      <trkpt lat="44.48174" lon="6.23207">
        <ele>965</ele>
        <time>2020-04-04T14:42:40Z</time>
      </trkpt>
      <trkpt lat="44.48174" lon="6.23207">
        <ele>965</ele>
        <time>2020-04-04T14:42:46Z</time>
      </trkpt>
      <trkpt lat="44.48174" lon="6.23207">
        <ele>966</ele>
        <time>2020-04-04T14:42:51Z</time>
      </trkpt>
      <trkpt lat="44.48174" lon="6.23207">
        <ele>965</ele>
        <time>2020-04-04T14:42:56Z</time>
      </trkpt>
      <trkpt lat="44.48174" lon="6.23207">
        <ele>965</ele>
        <time>2020-04-04T14:43:02Z</time>
      </trkpt>
      <trkpt lat="44.48174" lon="6.23206">
        <ele>965</ele>
        <time>2020-04-04T14:43:08Z</time>
      </trkpt>
      <trkpt lat="44.48174" lon="6.23206">
        <ele>965</ele>
        <time>2020-04-04T14:43:14Z</time>
      </trkpt>
      <trkpt lat="44.48174" lon="6.23206">
        <ele>965</ele>
        <time>2020-04-04T14:43:19Z</time>
      </trkpt>
      <trkpt lat="44.48174" lon="6.23206">
        <ele>965</ele>
        <time>2020-04-04T14:43:25Z</time>
      </trkpt>
      <trkpt lat="44.48174" lon="6.23206">
        <ele>965</ele>
        <time>2020-04-04T14:43:30Z</time>
      </trkpt>
      <trkpt lat="44.48174" lon="6.23206">
        <ele>965</ele>
        <time>2020-04-04T14:43:35Z</time>
      </trkpt>
      <trkpt lat="44.48174" lon="6.23206">
        <ele>965</ele>
        <time>2020-04-04T14:43:41Z</time>
      </trkpt>
      <trkpt lat="44.48174" lon="6.23206">
        <ele>965</ele>
        <time>2020-04-04T14:43:47Z</time>
      </trkpt>
      <trkpt lat="44.48175" lon="6.23206">
        <ele>965</ele>
        <time>2020-04-04T14:43:53Z</time>
      </trkpt>
      <trkpt lat="44.48175" lon="6.23206">
        <ele>965</ele>
        <time>2020-04-04T14:43:59Z</time>
      </trkpt>
      <trkpt lat="44.48176" lon="6.23205">
        <ele>963</ele>
        <time>2020-04-04T14:44:05Z</time>
      </trkpt>
      <trkpt lat="44.48185" lon="6.23214">
        <ele>964</ele>
        <time>2020-04-04T14:44:11Z</time>
      </trkpt>
      <trkpt lat="44.48192" lon="6.23226">
        <ele>964</ele>
        <time>2020-04-04T14:44:17Z</time>
      </trkpt>
      <trkpt lat="44.482" lon="6.23237">
        <ele>970</ele>
        <time>2020-04-04T14:44:23Z</time>
      </trkpt>
      <trkpt lat="44.48211" lon="6.23246">
        <ele>970</ele>
        <time>2020-04-04T14:44:29Z</time>
      </trkpt>
      <trkpt lat="44.48222" lon="6.23254">
        <ele>966</ele>
        <time>2020-04-04T14:44:35Z</time>
      </trkpt>
      <trkpt lat="44.48233" lon="6.2326">
        <ele>967</ele>
        <time>2020-04-04T14:44:40Z</time>
      </trkpt>
      <trkpt lat="44.4824" lon="6.23268">
        <ele>967</ele>
        <time>2020-04-04T14:44:45Z</time>
      </trkpt>
      <trkpt lat="44.48252" lon="6.23277">
        <ele>962</ele>
        <time>2020-04-04T14:44:50Z</time>
      </trkpt>
      <trkpt lat="44.48265" lon="6.23292">
        <ele>962</ele>
        <time>2020-04-04T14:44:56Z</time>
      </trkpt>
      <trkpt lat="44.48273" lon="6.23302">
        <ele>961</ele>
        <time>2020-04-04T14:45:01Z</time>
      </trkpt>
      <trkpt lat="44.48286" lon="6.23312">
        <ele>965</ele>
        <time>2020-04-04T14:45:07Z</time>
      </trkpt>
      <trkpt lat="44.48296" lon="6.23314">
        <ele>967</ele>
        <time>2020-04-04T14:45:13Z</time>
      </trkpt>
      <trkpt lat="44.48304" lon="6.23315">
        <ele>965</ele>
        <time>2020-04-04T14:45:18Z</time>
      </trkpt>
      <trkpt lat="44.48314" lon="6.23319">
        <ele>968</ele>
        <time>2020-04-04T14:45:24Z</time>
      </trkpt>
      <trkpt lat="44.48322" lon="6.2332">
        <ele>969</ele>
        <time>2020-04-04T14:45:29Z</time>
      </trkpt>
      <trkpt lat="44.48334" lon="6.23323">
        <ele>965</ele>
        <time>2020-04-04T14:45:35Z</time>
      </trkpt>
      <trkpt lat="44.48346" lon="6.23327">
        <ele>967</ele>
        <time>2020-04-04T14:45:41Z</time>
      </trkpt>
      <trkpt lat="44.48353" lon="6.23332">
        <ele>964</ele>
        <time>2020-04-04T14:45:46Z</time>
      </trkpt>
      <trkpt lat="44.48364" lon="6.23332">
        <ele>966</ele>
        <time>2020-04-04T14:45:52Z</time>
      </trkpt>
      <trkpt lat="44.48373" lon="6.23332">
        <ele>968</ele>
        <time>2020-04-04T14:45:57Z</time>
      </trkpt>
      <trkpt lat="44.48376" lon="6.23335">
        <ele>967</ele>
        <time>2020-04-04T14:46:02Z</time>
      </trkpt>
      <trkpt lat="44.48377" lon="6.23335">
        <ele>968</ele>
        <time>2020-04-04T14:46:08Z</time>
      </trkpt>
      <trkpt lat="44.48378" lon="6.23337">
        <ele>968</ele>
        <time>2020-04-04T14:46:13Z</time>
      </trkpt>
      <trkpt lat="44.48379" lon="6.23339">
        <ele>970</ele>
        <time>2020-04-04T14:46:19Z</time>
      </trkpt>
      <trkpt lat="44.48378" lon="6.23341">
        <ele>970</ele>
        <time>2020-04-04T14:46:25Z</time>
      </trkpt>
      <trkpt lat="44.48378" lon="6.23343">
        <ele>974</ele>
        <time>2020-04-04T14:46:30Z</time>
      </trkpt>
      <trkpt lat="44.48379" lon="6.23344">
        <ele>972</ele>
        <time>2020-04-04T14:46:35Z</time>
      </trkpt>
      <trkpt lat="44.48379" lon="6.23345">
        <ele>971</ele>
        <time>2020-04-04T14:46:40Z</time>
      </trkpt>
      <trkpt lat="44.48377" lon="6.23346">
        <ele>971</ele>
        <time>2020-04-04T14:46:46Z</time>
      </trkpt>
      <trkpt lat="44.48378" lon="6.23344">
        <ele>969</ele>
        <time>2020-04-04T14:46:51Z</time>
      </trkpt>
      <trkpt lat="44.48379" lon="6.23344">
        <ele>969</ele>
        <time>2020-04-04T14:46:57Z</time>
      </trkpt>
      <trkpt lat="44.48379" lon="6.23345">
        <ele>969</ele>
        <time>2020-04-04T14:47:02Z</time>
      </trkpt>
      <trkpt lat="44.4838" lon="6.23347">
        <ele>969</ele>
        <time>2020-04-04T14:47:08Z</time>
      </trkpt>
      <trkpt lat="44.48379" lon="6.23348">
        <ele>968</ele>
        <time>2020-04-04T14:47:14Z</time>
      </trkpt>
      <trkpt lat="44.4838" lon="6.23347">
        <ele>964</ele>
        <time>2020-04-04T14:47:19Z</time>
      </trkpt>
      <trkpt lat="44.4838" lon="6.23347">
        <ele>963</ele>
        <time>2020-04-04T14:47:24Z</time>
      </trkpt>
      <trkpt lat="44.48381" lon="6.23345">
        <ele>962</ele>
        <time>2020-04-04T14:47:29Z</time>
      </trkpt>
      <trkpt lat="44.48386" lon="6.23348">
        <ele>965</ele>
        <time>2020-04-04T14:47:38Z</time>
      </trkpt>
      <trkpt lat="44.48383" lon="6.2335">
        <ele>967</ele>
        <time>2020-04-04T14:47:43Z</time>
      </trkpt>
      <trkpt lat="44.48372" lon="6.2335">
        <ele>969</ele>
        <time>2020-04-04T14:47:49Z</time>
      </trkpt>
      <trkpt lat="44.48361" lon="6.23352">
        <ele>967</ele>
        <time>2020-04-04T14:47:54Z</time>
      </trkpt>
      <trkpt lat="44.4836" lon="6.23351">
        <ele>964</ele>
        <time>2020-04-04T14:47:59Z</time>
      </trkpt>
      <trkpt lat="44.48363" lon="6.23349">
        <ele>965</ele>
        <time>2020-04-04T14:48:05Z</time>
      </trkpt>
      <trkpt lat="44.48369" lon="6.23348">
        <ele>967</ele>
        <time>2020-04-04T14:48:10Z</time>
      </trkpt>
      <trkpt lat="44.48381" lon="6.23351">
        <ele>963</ele>
        <time>2020-04-04T14:48:16Z</time>
      </trkpt>
      <trkpt lat="44.48392" lon="6.23362">
        <ele>964</ele>
        <time>2020-04-04T14:48:21Z</time>
      </trkpt>
      <trkpt lat="44.48397" lon="6.23371">
        <ele>966</ele>
        <time>2020-04-04T14:48:27Z</time>
      </trkpt>
      <trkpt lat="44.48398" lon="6.23383">
        <ele>969</ele>
        <time>2020-04-04T14:48:33Z</time>
      </trkpt>
      <trkpt lat="44.48402" lon="6.2339">
        <ele>970</ele>
        <time>2020-04-04T14:48:38Z</time>
      </trkpt>
      <trkpt lat="44.48404" lon="6.23394">
        <ele>973</ele>
        <time>2020-04-04T14:48:44Z</time>
      </trkpt>
      <trkpt lat="44.48405" lon="6.23396">
        <ele>975</ele>
        <time>2020-04-04T14:48:49Z</time>
      </trkpt>
      <trkpt lat="44.48407" lon="6.234">
        <ele>974</ele>
        <time>2020-04-04T14:48:55Z</time>
      </trkpt>
      <trkpt lat="44.48406" lon="6.23404">
        <ele>976</ele>
        <time>2020-04-04T14:49:00Z</time>
      </trkpt>
      <trkpt lat="44.48408" lon="6.23407">
        <ele>978</ele>
        <time>2020-04-04T14:49:05Z</time>
      </trkpt>
      <trkpt lat="44.48407" lon="6.23414">
        <ele>977</ele>
        <time>2020-04-04T14:49:11Z</time>
      </trkpt>
      <trkpt lat="44.48405" lon="6.23415">
        <ele>978</ele>
        <time>2020-04-04T14:49:17Z</time>
      </trkpt>
      <trkpt lat="44.48391" lon="6.23417">
        <ele>973</ele>
        <time>2020-04-04T14:49:23Z</time>
      </trkpt>
      <trkpt lat="44.48382" lon="6.23415">
        <ele>975</ele>
        <time>2020-04-04T14:49:28Z</time>
      </trkpt>
      <trkpt lat="44.48372" lon="6.23416">
        <ele>975</ele>
        <time>2020-04-04T14:49:33Z</time>
      </trkpt>
      <trkpt lat="44.4836" lon="6.23418">
        <ele>975</ele>
        <time>2020-04-04T14:49:39Z</time>
      </trkpt>
      <trkpt lat="44.48347" lon="6.23418">
        <ele>973</ele>
        <time>2020-04-04T14:49:45Z</time>
      </trkpt>
      <trkpt lat="44.48331" lon="6.23417">
        <ele>970</ele>
        <time>2020-04-04T14:49:50Z</time>
      </trkpt>
      <trkpt lat="44.48318" lon="6.23415">
        <ele>967</ele>
        <time>2020-04-04T14:49:56Z</time>
      </trkpt>
      <trkpt lat="44.48307" lon="6.23411">
        <ele>962</ele>
        <time>2020-04-04T14:50:02Z</time>
      </trkpt>
      <trkpt lat="44.483" lon="6.23408">
        <ele>965</ele>
        <time>2020-04-04T14:50:07Z</time>
      </trkpt>
      <trkpt lat="44.48295" lon="6.23403">
        <ele>972</ele>
        <time>2020-04-04T14:50:12Z</time>
      </trkpt>
      <trkpt lat="44.48287" lon="6.23398">
        <ele>969</ele>
        <time>2020-04-04T14:50:18Z</time>
      </trkpt>
      <trkpt lat="44.48273" lon="6.23396">
        <ele>965</ele>
        <time>2020-04-04T14:50:24Z</time>
      </trkpt>
      <trkpt lat="44.48263" lon="6.23393">
        <ele>963</ele>
        <time>2020-04-04T14:50:29Z</time>
      </trkpt>
      <trkpt lat="44.48255" lon="6.23393">
        <ele>967</ele>
        <time>2020-04-04T14:50:34Z</time>
      </trkpt>
      <trkpt lat="44.48241" lon="6.23391">
        <ele>951</ele>
        <time>2020-04-04T14:50:40Z</time>
      </trkpt>
      <trkpt lat="44.4823" lon="6.23386">
        <ele>955</ele>
        <time>2020-04-04T14:50:45Z</time>
      </trkpt>
      <trkpt lat="44.48222" lon="6.23385">
        <ele>960</ele>
        <time>2020-04-04T14:50:50Z</time>
      </trkpt>
      <trkpt lat="44.48207" lon="6.23379">
        <ele>955</ele>
        <time>2020-04-04T14:50:56Z</time>
      </trkpt>
      <trkpt lat="44.48197" lon="6.23373">
        <ele>953</ele>
        <time>2020-04-04T14:51:01Z</time>
      </trkpt>
      <trkpt lat="44.48187" lon="6.23364">
        <ele>953</ele>
        <time>2020-04-04T14:51:07Z</time>
      </trkpt>
      <trkpt lat="44.48179" lon="6.23359">
        <ele>961</ele>
        <time>2020-04-04T14:51:12Z</time>
      </trkpt>
      <trkpt lat="44.48165" lon="6.2335">
        <ele>971</ele>
        <time>2020-04-04T14:51:18Z</time>
      </trkpt>
      <trkpt lat="44.48157" lon="6.23341">
        <ele>975</ele>
        <time>2020-04-04T14:51:23Z</time>
      </trkpt>
      <trkpt lat="44.48147" lon="6.23333">
        <ele>980</ele>
        <time>2020-04-04T14:51:29Z</time>
      </trkpt>
      <trkpt lat="44.48136" lon="6.23327">
        <ele>982</ele>
        <time>2020-04-04T14:51:35Z</time>
      </trkpt>
      <trkpt lat="44.48128" lon="6.23326">
        <ele>987</ele>
        <time>2020-04-04T14:51:41Z</time>
      </trkpt>
      <trkpt lat="44.4812" lon="6.23329">
        <ele>989</ele>
        <time>2020-04-04T14:51:46Z</time>
      </trkpt>
      <trkpt lat="44.48111" lon="6.23337">
        <ele>989</ele>
        <time>2020-04-04T14:51:52Z</time>
      </trkpt>
      <trkpt lat="44.481" lon="6.23336">
        <ele>991</ele>
        <time>2020-04-04T14:51:57Z</time>
      </trkpt>
      <trkpt lat="44.48083" lon="6.23328">
        <ele>994</ele>
        <time>2020-04-04T14:52:04Z</time>
      </trkpt>
      <trkpt lat="44.48063" lon="6.23319">
        <ele>997</ele>
        <time>2020-04-04T14:52:09Z</time>
      </trkpt>
      <trkpt lat="44.4805" lon="6.2332">
        <ele>994</ele>
        <time>2020-04-04T14:52:15Z</time>
      </trkpt>
      <trkpt lat="44.48037" lon="6.23328">
        <ele>997</ele>
        <time>2020-04-04T14:52:20Z</time>
      </trkpt>
      <trkpt lat="44.4803" lon="6.23323">
        <ele>994</ele>
        <time>2020-04-04T14:52:25Z</time>
      </trkpt>
      <trkpt lat="44.48017" lon="6.2333">
        <ele>991</ele>
        <time>2020-04-04T14:52:31Z</time>
      </trkpt>
      <trkpt lat="44.47998" lon="6.23347">
        <ele>990</ele>
        <time>2020-04-04T14:52:37Z</time>
      </trkpt>
      <trkpt lat="44.47984" lon="6.23356">
        <ele>991</ele>
        <time>2020-04-04T14:52:42Z</time>
      </trkpt>
      <trkpt lat="44.47968" lon="6.23364">
        <ele>994</ele>
        <time>2020-04-04T14:52:48Z</time>
      </trkpt>
      <trkpt lat="44.47954" lon="6.23367">
        <ele>999</ele>
        <time>2020-04-04T14:52:54Z</time>
      </trkpt>
      <trkpt lat="44.47943" lon="6.23369">
        <ele>997</ele>
        <time>2020-04-04T14:52:59Z</time>
      </trkpt>
      <trkpt lat="44.47937" lon="6.23371">
        <ele>995</ele>
        <time>2020-04-04T14:53:04Z</time>
      </trkpt>
      <trkpt lat="44.47932" lon="6.23379">
        <ele>994</ele>
        <time>2020-04-04T14:53:09Z</time>
      </trkpt>
      <trkpt lat="44.4792" lon="6.23384">
        <ele>1001</ele>
        <time>2020-04-04T14:53:15Z</time>
      </trkpt>
      <trkpt lat="44.47908" lon="6.23392">
        <ele>1011</ele>
        <time>2020-04-04T14:53:21Z</time>
      </trkpt>
      <trkpt lat="44.47899" lon="6.234">
        <ele>1009</ele>
        <time>2020-04-04T14:53:26Z</time>
      </trkpt>
      <trkpt lat="44.47886" lon="6.23415">
        <ele>1005</ele>
        <time>2020-04-04T14:53:32Z</time>
      </trkpt>
      <trkpt lat="44.47875" lon="6.23423">
        <ele>1005</ele>
        <time>2020-04-04T14:53:37Z</time>
      </trkpt>
      <trkpt lat="44.47865" lon="6.23429">
        <ele>1010</ele>
        <time>2020-04-04T14:53:43Z</time>
      </trkpt>
      <trkpt lat="44.47857" lon="6.23438">
        <ele>1017</ele>
        <time>2020-04-04T14:53:48Z</time>
      </trkpt>
      <trkpt lat="44.47849" lon="6.23451">
        <ele>1018</ele>
        <time>2020-04-04T14:53:53Z</time>
      </trkpt>
      <trkpt lat="44.4783" lon="6.23454">
        <ele>1019</ele>
        <time>2020-04-04T14:53:59Z</time>
      </trkpt>
      <trkpt lat="44.47781" lon="6.23475">
        <ele>1018</ele>
        <time>2020-04-04T14:54:05Z</time>
      </trkpt>
      <trkpt lat="44.47737" lon="6.23493">
        <ele>1017</ele>
        <time>2020-04-04T14:54:11Z</time>
      </trkpt>
      <trkpt lat="44.47692" lon="6.23504">
        <ele>1012</ele>
        <time>2020-04-04T14:54:17Z</time>
      </trkpt>
      <trkpt lat="44.47675" lon="6.2352">
        <ele>1010</ele>
        <time>2020-04-04T14:54:23Z</time>
      </trkpt>
      <trkpt lat="44.47666" lon="6.2351">
        <ele>1010</ele>
        <time>2020-04-04T14:54:28Z</time>
      </trkpt>
      <trkpt lat="44.47654" lon="6.23497">
        <ele>1011</ele>
        <time>2020-04-04T14:54:34Z</time>
      </trkpt>
      <trkpt lat="44.47648" lon="6.23482">
        <ele>1010</ele>
        <time>2020-04-04T14:54:39Z</time>
      </trkpt>
      <trkpt lat="44.4763" lon="6.23465">
        <ele>1011</ele>
        <time>2020-04-04T14:54:45Z</time>
      </trkpt>
      <trkpt lat="44.47595" lon="6.23447">
        <ele>1012</ele>
        <time>2020-04-04T14:54:51Z</time>
      </trkpt>
      <trkpt lat="44.47556" lon="6.23438">
        <ele>1012</ele>
        <time>2020-04-04T14:54:57Z</time>
      </trkpt>
      <trkpt lat="44.47534" lon="6.23435">
        <ele>1009</ele>
        <time>2020-04-04T14:55:02Z</time>
      </trkpt>
      <trkpt lat="44.47518" lon="6.23442">
        <ele>1010</ele>
        <time>2020-04-04T14:55:08Z</time>
      </trkpt>
      <trkpt lat="44.47502" lon="6.23446">
        <ele>1008</ele>
        <time>2020-04-04T14:55:13Z</time>
      </trkpt>
      <trkpt lat="44.47483" lon="6.23441">
        <ele>1006</ele>
        <time>2020-04-04T14:55:18Z</time>
      </trkpt>
      <trkpt lat="44.47475" lon="6.23438">
        <ele>997</ele>
        <time>2020-04-04T14:55:24Z</time>
      </trkpt>
      <trkpt lat="44.47478" lon="6.23441">
        <ele>999</ele>
        <time>2020-04-04T14:55:29Z</time>
      </trkpt>
      <trkpt lat="44.47485" lon="6.23448">
        <ele>999</ele>
        <time>2020-04-04T14:55:35Z</time>
      </trkpt>
      <trkpt lat="44.4749" lon="6.23451">
        <ele>1001</ele>
        <time>2020-04-04T14:55:40Z</time>
      </trkpt>
      <trkpt lat="44.47496" lon="6.23456">
        <ele>1005</ele>
        <time>2020-04-04T14:55:46Z</time>
      </trkpt>
      <trkpt lat="44.47504" lon="6.23457">
        <ele>1006</ele>
        <time>2020-04-04T14:55:51Z</time>
      </trkpt>
      <trkpt lat="44.47513" lon="6.23458">
        <ele>1009</ele>
        <time>2020-04-04T14:55:56Z</time>
      </trkpt>
      <trkpt lat="44.47523" lon="6.23458">
        <ele>1011</ele>
        <time>2020-04-04T14:56:02Z</time>
      </trkpt>
      <trkpt lat="44.47531" lon="6.2346">
        <ele>1014</ele>
        <time>2020-04-04T14:56:08Z</time>
      </trkpt>
      <trkpt lat="44.47539" lon="6.23468">
        <ele>1014</ele>
        <time>2020-04-04T14:56:13Z</time>
      </trkpt>
      <trkpt lat="44.47546" lon="6.23474">
        <ele>1015</ele>
        <time>2020-04-04T14:56:19Z</time>
      </trkpt>
      <trkpt lat="44.47553" lon="6.23478">
        <ele>1018</ele>
        <time>2020-04-04T14:56:25Z</time>
      </trkpt>
      <trkpt lat="44.47558" lon="6.23479">
        <ele>1024</ele>
        <time>2020-04-04T14:56:32Z</time>
      </trkpt>
      <trkpt lat="44.47563" lon="6.23497">
        <ele>1022</ele>
        <time>2020-04-04T14:56:37Z</time>
      </trkpt>
      <trkpt lat="44.47569" lon="6.23508">
        <ele>1020</ele>
        <time>2020-04-04T14:56:43Z</time>
      </trkpt>
      <trkpt lat="44.47577" lon="6.23517">
        <ele>1023</ele>
        <time>2020-04-04T14:56:49Z</time>
      </trkpt>
      <trkpt lat="44.47583" lon="6.23522">
        <ele>1026</ele>
        <time>2020-04-04T14:56:54Z</time>
      </trkpt>
      <trkpt lat="44.4759" lon="6.23531">
        <ele>1030</ele>
        <time>2020-04-04T14:57:00Z</time>
      </trkpt>
      <trkpt lat="44.47598" lon="6.23542">
        <ele>1030</ele>
        <time>2020-04-04T14:57:05Z</time>
      </trkpt>
      <trkpt lat="44.47607" lon="6.23553">
        <ele>1034</ele>
        <time>2020-04-04T14:57:10Z</time>
      </trkpt>
      <trkpt lat="44.47613" lon="6.23562">
        <ele>1038</ele>
        <time>2020-04-04T14:57:16Z</time>
      </trkpt>
      <trkpt lat="44.47618" lon="6.23576">
        <ele>1039</ele>
        <time>2020-04-04T14:57:22Z</time>
      </trkpt>
      <trkpt lat="44.47625" lon="6.23588">
        <ele>1038</ele>
        <time>2020-04-04T14:57:28Z</time>
      </trkpt>
      <trkpt lat="44.47632" lon="6.23603">
        <ele>1041</ele>
        <time>2020-04-04T14:57:34Z</time>
      </trkpt>
      <trkpt lat="44.47636" lon="6.23615">
        <ele>1044</ele>
        <time>2020-04-04T14:57:39Z</time>
      </trkpt>
      <trkpt lat="44.4764" lon="6.23628">
        <ele>1046</ele>
        <time>2020-04-04T14:57:45Z</time>
      </trkpt>
      <trkpt lat="44.47645" lon="6.23641">
        <ele>1046</ele>
        <time>2020-04-04T14:57:50Z</time>
      </trkpt>
      <trkpt lat="44.47648" lon="6.23655">
        <ele>1048</ele>
        <time>2020-04-04T14:57:56Z</time>
      </trkpt>
      <trkpt lat="44.47654" lon="6.23668">
        <ele>1052</ele>
        <time>2020-04-04T14:58:02Z</time>
      </trkpt>
      <trkpt lat="44.47659" lon="6.23672">
        <ele>1051</ele>
        <time>2020-04-04T14:58:07Z</time>
      </trkpt>
      <trkpt lat="44.4767" lon="6.23674">
        <ele>1050</ele>
        <time>2020-04-04T14:58:13Z</time>
      </trkpt>
      <trkpt lat="44.47675" lon="6.23673">
        <ele>1050</ele>
        <time>2020-04-04T14:58:18Z</time>
      </trkpt>
      <trkpt lat="44.4768" lon="6.23671">
        <ele>1056</ele>
        <time>2020-04-04T14:58:24Z</time>
      </trkpt>
      <trkpt lat="44.4769" lon="6.23669">
        <ele>1059</ele>
        <time>2020-04-04T14:58:30Z</time>
      </trkpt>
      <trkpt lat="44.47702" lon="6.2367">
        <ele>1060</ele>
        <time>2020-04-04T14:58:36Z</time>
      </trkpt>
      <trkpt lat="44.47712" lon="6.23668">
        <ele>1061</ele>
        <time>2020-04-04T14:58:41Z</time>
      </trkpt>
      <trkpt lat="44.47721" lon="6.23666">
        <ele>1067</ele>
        <time>2020-04-04T14:58:46Z</time>
      </trkpt>
      <trkpt lat="44.47732" lon="6.23665">
        <ele>1067</ele>
        <time>2020-04-04T14:58:52Z</time>
      </trkpt>
      <trkpt lat="44.47739" lon="6.23666">
        <ele>1065</ele>
        <time>2020-04-04T14:58:57Z</time>
      </trkpt>
      <trkpt lat="44.47739" lon="6.23678">
        <ele>1067</ele>
        <time>2020-04-04T14:59:03Z</time>
      </trkpt>
      <trkpt lat="44.47734" lon="6.23691">
        <ele>1068</ele>
        <time>2020-04-04T14:59:09Z</time>
      </trkpt>
      <trkpt lat="44.47732" lon="6.23702">
        <ele>1068</ele>
        <time>2020-04-04T14:59:14Z</time>
      </trkpt>
      <trkpt lat="44.47729" lon="6.23718">
        <ele>1064</ele>
        <time>2020-04-04T14:59:23Z</time>
      </trkpt>
      <trkpt lat="44.47736" lon="6.2372">
        <ele>1066</ele>
        <time>2020-04-04T14:59:28Z</time>
      </trkpt>
      <trkpt lat="44.47739" lon="6.23712">
        <ele>1067</ele>
        <time>2020-04-04T14:59:34Z</time>
      </trkpt>
      <trkpt lat="44.47744" lon="6.23714">
        <ele>1070</ele>
        <time>2020-04-04T14:59:40Z</time>
      </trkpt>
      <trkpt lat="44.47749" lon="6.23725">
        <ele>1075</ele>
        <time>2020-04-04T14:59:45Z</time>
      </trkpt>
      <trkpt lat="44.47749" lon="6.23735">
        <ele>1078</ele>
        <time>2020-04-04T14:59:51Z</time>
      </trkpt>
      <trkpt lat="44.4774" lon="6.2374">
        <ele>1075</ele>
        <time>2020-04-04T14:59:56Z</time>
      </trkpt>
      <trkpt lat="44.4773" lon="6.23746">
        <ele>1074</ele>
        <time>2020-04-04T15:00:01Z</time>
      </trkpt>
      <trkpt lat="44.47721" lon="6.2375">
        <ele>1075</ele>
        <time>2020-04-04T15:00:06Z</time>
      </trkpt>
      <trkpt lat="44.4772" lon="6.23753">
        <ele>1084</ele>
        <time>2020-04-04T15:00:12Z</time>
      </trkpt>
      <trkpt lat="44.47717" lon="6.23752">
        <ele>1087</ele>
        <time>2020-04-04T15:00:18Z</time>
      </trkpt>
      <trkpt lat="44.47724" lon="6.23747">
        <ele>1090</ele>
        <time>2020-04-04T15:00:24Z</time>
      </trkpt>
      <trkpt lat="44.47731" lon="6.23749">
        <ele>1092</ele>
        <time>2020-04-04T15:00:29Z</time>
      </trkpt>
      <trkpt lat="44.47731" lon="6.2376">
        <ele>1092</ele>
        <time>2020-04-04T15:00:35Z</time>
      </trkpt>
      <trkpt lat="44.47729" lon="6.23769">
        <ele>1094</ele>
        <time>2020-04-04T15:00:40Z</time>
      </trkpt>
      <trkpt lat="44.47731" lon="6.23784">
        <ele>1096</ele>
        <time>2020-04-04T15:00:46Z</time>
      </trkpt>
      <trkpt lat="44.47737" lon="6.23795">
        <ele>1094</ele>
        <time>2020-04-04T15:00:51Z</time>
      </trkpt>
      <trkpt lat="44.47743" lon="6.23802">
        <ele>1094</ele>
        <time>2020-04-04T15:00:57Z</time>
      </trkpt>
      <trkpt lat="44.47748" lon="6.23807">
        <ele>1094</ele>
        <time>2020-04-04T15:01:02Z</time>
      </trkpt>
      <trkpt lat="44.47756" lon="6.23813">
        <ele>1096</ele>
        <time>2020-04-04T15:01:08Z</time>
      </trkpt>
      <trkpt lat="44.47765" lon="6.23825">
        <ele>1101</ele>
        <time>2020-04-04T15:01:14Z</time>
      </trkpt>
      <trkpt lat="44.47772" lon="6.2383">
        <ele>1104</ele>
        <time>2020-04-04T15:01:20Z</time>
      </trkpt>
      <trkpt lat="44.4778" lon="6.23836">
        <ele>1103</ele>
        <time>2020-04-04T15:01:25Z</time>
      </trkpt>
      <trkpt lat="44.47792" lon="6.2385">
        <ele>1104</ele>
        <time>2020-04-04T15:01:34Z</time>
      </trkpt>
      <trkpt lat="44.47802" lon="6.23854">
        <ele>1109</ele>
        <time>2020-04-04T15:01:40Z</time>
      </trkpt>
      <trkpt lat="44.4781" lon="6.23858">
        <ele>1113</ele>
        <time>2020-04-04T15:01:45Z</time>
      </trkpt>
      <trkpt lat="44.47818" lon="6.23858">
        <ele>1113</ele>
        <time>2020-04-04T15:01:51Z</time>
      </trkpt>
      <trkpt lat="44.47829" lon="6.23861">
        <ele>1115</ele>
        <time>2020-04-04T15:01:56Z</time>
      </trkpt>
      <trkpt lat="44.47837" lon="6.23861">
        <ele>1117</ele>
        <time>2020-04-04T15:02:01Z</time>
      </trkpt>
      <trkpt lat="44.47844" lon="6.23864">
        <ele>1116</ele>
        <time>2020-04-04T15:02:07Z</time>
      </trkpt>
      <trkpt lat="44.47848" lon="6.23874">
        <ele>1116</ele>
        <time>2020-04-04T15:02:12Z</time>
      </trkpt>
      <trkpt lat="44.47844" lon="6.23877">
        <ele>1115</ele>
        <time>2020-04-04T15:02:17Z</time>
      </trkpt>
      <trkpt lat="44.47851" lon="6.23857">
        <ele>1112</ele>
        <time>2020-04-04T15:02:23Z</time>
      </trkpt>
      <trkpt lat="44.47855" lon="6.23831">
        <ele>1112</ele>
        <time>2020-04-04T15:02:28Z</time>
      </trkpt>
      <trkpt lat="44.47849" lon="6.23806">
        <ele>1114</ele>
        <time>2020-04-04T15:02:33Z</time>
      </trkpt>
      <trkpt lat="44.47828" lon="6.23777">
        <ele>1111</ele>
        <time>2020-04-04T15:02:39Z</time>
      </trkpt>
      <trkpt lat="44.47817" lon="6.23749">
        <ele>1104</ele>
        <time>2020-04-04T15:02:44Z</time>
      </trkpt>
      <trkpt lat="44.47813" lon="6.23724">
        <ele>1096</ele>
        <time>2020-04-04T15:02:50Z</time>
      </trkpt>
      <trkpt lat="44.47819" lon="6.23693">
        <ele>1092</ele>
        <time>2020-04-04T15:02:56Z</time>
      </trkpt>
      <trkpt lat="44.47837" lon="6.23647">
        <ele>1086</ele>
        <time>2020-04-04T15:03:02Z</time>
      </trkpt>
      <trkpt lat="44.47858" lon="6.23605">
        <ele>1082</ele>
        <time>2020-04-04T15:03:07Z</time>
      </trkpt>
      <trkpt lat="44.479" lon="6.23566">
        <ele>1080</ele>
        <time>2020-04-04T15:03:13Z</time>
      </trkpt>
      <trkpt lat="44.47939" lon="6.23552">
        <ele>1076</ele>
        <time>2020-04-04T15:03:18Z</time>
      </trkpt>
      <trkpt lat="44.4797" lon="6.23542">
        <ele>1077</ele>
        <time>2020-04-04T15:03:23Z</time>
      </trkpt>
      <trkpt lat="44.48006" lon="6.23537">
        <ele>1070</ele>
        <time>2020-04-04T15:03:29Z</time>
      </trkpt>
      <trkpt lat="44.48041" lon="6.23542">
        <ele>1066</ele>
        <time>2020-04-04T15:03:35Z</time>
      </trkpt>
      <trkpt lat="44.4805" lon="6.23543">
        <ele>1066</ele>
        <time>2020-04-04T15:03:41Z</time>
      </trkpt>
      <trkpt lat="44.48057" lon="6.23547">
        <ele>1070</ele>
        <time>2020-04-04T15:03:46Z</time>
      </trkpt>
      <trkpt lat="44.48064" lon="6.23554">
        <ele>1067</ele>
        <time>2020-04-04T15:03:51Z</time>
      </trkpt>
      <trkpt lat="44.48075" lon="6.23563">
        <ele>1067</ele>
        <time>2020-04-04T15:03:57Z</time>
      </trkpt>
      <trkpt lat="44.48085" lon="6.2357">
        <ele>1068</ele>
        <time>2020-04-04T15:04:02Z</time>
      </trkpt>
      <trkpt lat="44.48092" lon="6.23577">
        <ele>1068</ele>
        <time>2020-04-04T15:04:08Z</time>
      </trkpt>
      <trkpt lat="44.48101" lon="6.23583">
        <ele>1072</ele>
        <time>2020-04-04T15:04:13Z</time>
      </trkpt>
      <trkpt lat="44.48112" lon="6.23587">
        <ele>1077</ele>
        <time>2020-04-04T15:04:19Z</time>
      </trkpt>
      <trkpt lat="44.48117" lon="6.23593">
        <ele>1080</ele>
        <time>2020-04-04T15:04:25Z</time>
      </trkpt>
      <trkpt lat="44.48127" lon="6.23602">
        <ele>1081</ele>
        <time>2020-04-04T15:04:30Z</time>
      </trkpt>
      <trkpt lat="44.48138" lon="6.23609">
        <ele>1080</ele>
        <time>2020-04-04T15:04:36Z</time>
      </trkpt>
      <trkpt lat="44.48146" lon="6.23614">
        <ele>1080</ele>
        <time>2020-04-04T15:04:42Z</time>
      </trkpt>
      <trkpt lat="44.48155" lon="6.23616">
        <ele>1082</ele>
        <time>2020-04-04T15:04:47Z</time>
      </trkpt>
      <trkpt lat="44.48164" lon="6.2362">
        <ele>1082</ele>
        <time>2020-04-04T15:04:52Z</time>
      </trkpt>
      <trkpt lat="44.48172" lon="6.23623">
        <ele>1080</ele>
        <time>2020-04-04T15:04:58Z</time>
      </trkpt>
      <trkpt lat="44.48176" lon="6.23626">
        <ele>1089</ele>
        <time>2020-04-04T15:05:03Z</time>
      </trkpt>
      <trkpt lat="44.48188" lon="6.23632">
        <ele>1093</ele>
        <time>2020-04-04T15:05:09Z</time>
      </trkpt>
      <trkpt lat="44.48195" lon="6.23636">
        <ele>1094</ele>
        <time>2020-04-04T15:05:14Z</time>
      </trkpt>
      <trkpt lat="44.48204" lon="6.23641">
        <ele>1097</ele>
        <time>2020-04-04T15:05:20Z</time>
      </trkpt>
      <trkpt lat="44.48215" lon="6.23645">
        <ele>1100</ele>
        <time>2020-04-04T15:05:26Z</time>
      </trkpt>
      <trkpt lat="44.48225" lon="6.23648">
        <ele>1100</ele>
        <time>2020-04-04T15:05:31Z</time>
      </trkpt>
      <trkpt lat="44.48234" lon="6.23655">
        <ele>1098</ele>
        <time>2020-04-04T15:05:36Z</time>
      </trkpt>
      <trkpt lat="44.48242" lon="6.2366">
        <ele>1096</ele>
        <time>2020-04-04T15:05:41Z</time>
      </trkpt>
      <trkpt lat="44.48257" lon="6.23662">
        <ele>1096</ele>
        <time>2020-04-04T15:05:47Z</time>
      </trkpt>
      <trkpt lat="44.48288" lon="6.23676">
        <ele>1097</ele>
        <time>2020-04-04T15:05:52Z</time>
      </trkpt>
      <trkpt lat="44.48337" lon="6.23689">
        <ele>1101</ele>
        <time>2020-04-04T15:05:58Z</time>
      </trkpt>
      <trkpt lat="44.48385" lon="6.237">
        <ele>1099</ele>
        <time>2020-04-04T15:06:03Z</time>
      </trkpt>
      <trkpt lat="44.48448" lon="6.23721">
        <ele>1094</ele>
        <time>2020-04-04T15:06:10Z</time>
      </trkpt>
      <trkpt lat="44.48497" lon="6.23744">
        <ele>1093</ele>
        <time>2020-04-04T15:06:15Z</time>
      </trkpt>
      <trkpt lat="44.48519" lon="6.23784">
        <ele>1083</ele>
        <time>2020-04-04T15:06:20Z</time>
      </trkpt>
      <trkpt lat="44.48551" lon="6.238">
        <ele>1081</ele>
        <time>2020-04-04T15:06:25Z</time>
      </trkpt>
      <trkpt lat="44.48585" lon="6.23824">
        <ele>1077</ele>
        <time>2020-04-04T15:06:31Z</time>
      </trkpt>
      <trkpt lat="44.48623" lon="6.23859">
        <ele>1077</ele>
        <time>2020-04-04T15:06:36Z</time>
      </trkpt>
      <trkpt lat="44.48639" lon="6.23861">
        <ele>1075</ele>
        <time>2020-04-04T15:06:41Z</time>
      </trkpt>
      <trkpt lat="44.48669" lon="6.23863">
        <ele>1072</ele>
        <time>2020-04-04T15:06:47Z</time>
      </trkpt>
      <trkpt lat="44.48702" lon="6.2387">
        <ele>1074</ele>
        <time>2020-04-04T15:06:53Z</time>
      </trkpt>
      <trkpt lat="44.48739" lon="6.23862">
        <ele>1070</ele>
        <time>2020-04-04T15:06:59Z</time>
      </trkpt>
      <trkpt lat="44.48767" lon="6.23894">
        <ele>1066</ele>
        <time>2020-04-04T15:07:05Z</time>
      </trkpt>
      <trkpt lat="44.48788" lon="6.23917">
        <ele>1064</ele>
        <time>2020-04-04T15:07:10Z</time>
      </trkpt>
      <trkpt lat="44.48833" lon="6.23936">
        <ele>1059</ele>
        <time>2020-04-04T15:07:16Z</time>
      </trkpt>
      <trkpt lat="44.48857" lon="6.23964">
        <ele>1053</ele>
        <time>2020-04-04T15:07:21Z</time>
      </trkpt>
      <trkpt lat="44.48883" lon="6.23993">
        <ele>1052</ele>
        <time>2020-04-04T15:07:27Z</time>
      </trkpt>
      <trkpt lat="44.48901" lon="6.23972">
        <ele>1046</ele>
        <time>2020-04-04T15:07:33Z</time>
      </trkpt>
      <trkpt lat="44.48925" lon="6.23968">
        <ele>1041</ele>
        <time>2020-04-04T15:07:39Z</time>
      </trkpt>
      <trkpt lat="44.4896" lon="6.2398">
        <ele>1046</ele>
        <time>2020-04-04T15:07:45Z</time>
      </trkpt>
      <trkpt lat="44.48975" lon="6.23989">
        <ele>1044</ele>
        <time>2020-04-04T15:07:51Z</time>
      </trkpt>
      <trkpt lat="44.48993" lon="6.2399">
        <ele>1040</ele>
        <time>2020-04-04T15:07:57Z</time>
      </trkpt>
      <trkpt lat="44.48996" lon="6.23983">
        <ele>1038</ele>
        <time>2020-04-04T15:08:02Z</time>
      </trkpt>
      <trkpt lat="44.48998" lon="6.23969">
        <ele>1035</ele>
        <time>2020-04-04T15:08:07Z</time>
      </trkpt>
      <trkpt lat="44.48993" lon="6.23951">
        <ele>1033</ele>
        <time>2020-04-04T15:08:13Z</time>
      </trkpt>
      <trkpt lat="44.48985" lon="6.2393">
        <ele>1029</ele>
        <time>2020-04-04T15:08:19Z</time>
      </trkpt>
      <trkpt lat="44.48991" lon="6.23919">
        <ele>1032</ele>
        <time>2020-04-04T15:08:24Z</time>
      </trkpt>
      <trkpt lat="44.49004" lon="6.23931">
        <ele>1031</ele>
        <time>2020-04-04T15:08:30Z</time>
      </trkpt>
      <trkpt lat="44.49016" lon="6.23937">
        <ele>1036</ele>
        <time>2020-04-04T15:08:36Z</time>
      </trkpt>
      <trkpt lat="44.49029" lon="6.23941">
        <ele>1039</ele>
        <time>2020-04-04T15:08:42Z</time>
      </trkpt>
      <trkpt lat="44.49042" lon="6.23946">
        <ele>1040</ele>
        <time>2020-04-04T15:08:48Z</time>
      </trkpt>
      <trkpt lat="44.49053" lon="6.23954">
        <ele>1040</ele>
        <time>2020-04-04T15:08:54Z</time>
      </trkpt>
      <trkpt lat="44.49066" lon="6.23963">
        <ele>1044</ele>
        <time>2020-04-04T15:09:00Z</time>
      </trkpt>
      <trkpt lat="44.49075" lon="6.23963">
        <ele>1047</ele>
        <time>2020-04-04T15:09:05Z</time>
      </trkpt>
      <trkpt lat="44.49089" lon="6.23962">
        <ele>1046</ele>
        <time>2020-04-04T15:09:11Z</time>
      </trkpt>
      <trkpt lat="44.49102" lon="6.23964">
        <ele>1049</ele>
        <time>2020-04-04T15:09:17Z</time>
      </trkpt>
      <trkpt lat="44.49112" lon="6.23971">
        <ele>1051</ele>
        <time>2020-04-04T15:09:23Z</time>
      </trkpt>
      <trkpt lat="44.49124" lon="6.23982">
        <ele>1055</ele>
        <time>2020-04-04T15:09:29Z</time>
      </trkpt>
      <trkpt lat="44.49136" lon="6.23991">
        <ele>1057</ele>
        <time>2020-04-04T15:09:34Z</time>
      </trkpt>
      <trkpt lat="44.49145" lon="6.24003">
        <ele>1062</ele>
        <time>2020-04-04T15:09:40Z</time>
      </trkpt>
      <trkpt lat="44.49154" lon="6.24015">
        <ele>1066</ele>
        <time>2020-04-04T15:09:46Z</time>
      </trkpt>
      <trkpt lat="44.49165" lon="6.24027">
        <ele>1063</ele>
        <time>2020-04-04T15:09:52Z</time>
      </trkpt>
      <trkpt lat="44.49177" lon="6.24033">
        <ele>1067</ele>
        <time>2020-04-04T15:09:57Z</time>
      </trkpt>
      <trkpt lat="44.49193" lon="6.24039">
        <ele>1068</ele>
        <time>2020-04-04T15:10:03Z</time>
      </trkpt>
      <trkpt lat="44.492" lon="6.24048">
        <ele>1067</ele>
        <time>2020-04-04T15:10:08Z</time>
      </trkpt>
      <trkpt lat="44.49208" lon="6.24063">
        <ele>1071</ele>
        <time>2020-04-04T15:10:14Z</time>
      </trkpt>
      <trkpt lat="44.49216" lon="6.24072">
        <ele>1080</ele>
        <time>2020-04-04T15:10:19Z</time>
      </trkpt>
      <trkpt lat="44.49225" lon="6.24077">
        <ele>1078</ele>
        <time>2020-04-04T15:10:25Z</time>
      </trkpt>
      <trkpt lat="44.49237" lon="6.24075">
        <ele>1080</ele>
        <time>2020-04-04T15:10:31Z</time>
      </trkpt>
      <trkpt lat="44.49249" lon="6.24084">
        <ele>1085</ele>
        <time>2020-04-04T15:10:37Z</time>
      </trkpt>
      <trkpt lat="44.49257" lon="6.24094">
        <ele>1086</ele>
        <time>2020-04-04T15:10:43Z</time>
      </trkpt>
      <trkpt lat="44.49266" lon="6.24105">
        <ele>1085</ele>
        <time>2020-04-04T15:10:49Z</time>
      </trkpt>
      <trkpt lat="44.49274" lon="6.24108">
        <ele>1087</ele>
        <time>2020-04-04T15:10:54Z</time>
      </trkpt>
      <trkpt lat="44.49284" lon="6.2411">
        <ele>1087</ele>
        <time>2020-04-04T15:11:00Z</time>
      </trkpt>
      <trkpt lat="44.49296" lon="6.24116">
        <ele>1091</ele>
        <time>2020-04-04T15:11:05Z</time>
      </trkpt>
      <trkpt lat="44.49312" lon="6.24132">
        <ele>1094</ele>
        <time>2020-04-04T15:11:11Z</time>
      </trkpt>
      <trkpt lat="44.49328" lon="6.24151">
        <ele>1095</ele>
        <time>2020-04-04T15:11:17Z</time>
      </trkpt>
      <trkpt lat="44.49344" lon="6.24161">
        <ele>1097</ele>
        <time>2020-04-04T15:11:23Z</time>
      </trkpt>
      <trkpt lat="44.49366" lon="6.24164">
        <ele>1098</ele>
        <time>2020-04-04T15:11:29Z</time>
      </trkpt>
      <trkpt lat="44.49376" lon="6.24168">
        <ele>1095</ele>
        <time>2020-04-04T15:11:34Z</time>
      </trkpt>
      <trkpt lat="44.49382" lon="6.24168">
        <ele>1095</ele>
        <time>2020-04-04T15:11:40Z</time>
      </trkpt>
      <trkpt lat="44.49388" lon="6.24168">
        <ele>1096</ele>
        <time>2020-04-04T15:11:45Z</time>
      </trkpt>
      <trkpt lat="44.49395" lon="6.24169">
        <ele>1097</ele>
        <time>2020-04-04T15:11:51Z</time>
      </trkpt>
      <trkpt lat="44.49402" lon="6.24167">
        <ele>1098</ele>
        <time>2020-04-04T15:11:56Z</time>
      </trkpt>
      <trkpt lat="44.4941" lon="6.24163">
        <ele>1098</ele>
        <time>2020-04-04T15:12:02Z</time>
      </trkpt>
      <trkpt lat="44.49416" lon="6.2416">
        <ele>1090</ele>
        <time>2020-04-04T15:12:07Z</time>
      </trkpt>
      <trkpt lat="44.4942" lon="6.24156">
        <ele>1089</ele>
        <time>2020-04-04T15:12:12Z</time>
      </trkpt>
      <trkpt lat="44.49426" lon="6.2415">
        <ele>1088</ele>
        <time>2020-04-04T15:12:18Z</time>
      </trkpt>
      <trkpt lat="44.4943" lon="6.24151">
        <ele>1090</ele>
        <time>2020-04-04T15:12:24Z</time>
      </trkpt>
      <trkpt lat="44.49438" lon="6.24144">
        <ele>1087</ele>
        <time>2020-04-04T15:12:30Z</time>
      </trkpt>
      <trkpt lat="44.49448" lon="6.24137">
        <ele>1090</ele>
        <time>2020-04-04T15:12:36Z</time>
      </trkpt>
      <trkpt lat="44.49458" lon="6.24129">
        <ele>1092</ele>
        <time>2020-04-04T15:12:42Z</time>
      </trkpt>
      <trkpt lat="44.4947" lon="6.24115">
        <ele>1094</ele>
        <time>2020-04-04T15:12:48Z</time>
      </trkpt>
      <trkpt lat="44.49479" lon="6.24106">
        <ele>1095</ele>
        <time>2020-04-04T15:12:53Z</time>
      </trkpt>
      <trkpt lat="44.49488" lon="6.24099">
        <ele>1094</ele>
        <time>2020-04-04T15:12:58Z</time>
      </trkpt>
      <trkpt lat="44.49503" lon="6.24086">
        <ele>1103</ele>
        <time>2020-04-04T15:13:04Z</time>
      </trkpt>
      <trkpt lat="44.49524" lon="6.24076">
        <ele>1105</ele>
        <time>2020-04-04T15:13:10Z</time>
      </trkpt>
      <trkpt lat="44.49544" lon="6.24079">
        <ele>1106</ele>
        <time>2020-04-04T15:13:15Z</time>
      </trkpt>
      <trkpt lat="44.49565" lon="6.24075">
        <ele>1108</ele>
        <time>2020-04-04T15:13:20Z</time>
      </trkpt>
      <trkpt lat="44.49584" lon="6.24066">
        <ele>1104</ele>
        <time>2020-04-04T15:13:26Z</time>
      </trkpt>
      <trkpt lat="44.49598" lon="6.24044">
        <ele>1107</ele>
        <time>2020-04-04T15:13:32Z</time>
      </trkpt>
      <trkpt lat="44.49611" lon="6.24043">
        <ele>1108</ele>
        <time>2020-04-04T15:13:38Z</time>
      </trkpt>
      <trkpt lat="44.49625" lon="6.24055">
        <ele>1112</ele>
        <time>2020-04-04T15:13:43Z</time>
      </trkpt>
      <trkpt lat="44.49639" lon="6.24061">
        <ele>1115</ele>
        <time>2020-04-04T15:13:48Z</time>
      </trkpt>
      <trkpt lat="44.49648" lon="6.24059">
        <ele>1114</ele>
        <time>2020-04-04T15:13:54Z</time>
      </trkpt>
      <trkpt lat="44.4966" lon="6.24057">
        <ele>1111</ele>
        <time>2020-04-04T15:14:00Z</time>
      </trkpt>
      <trkpt lat="44.49674" lon="6.24062">
        <ele>1107</ele>
        <time>2020-04-04T15:14:05Z</time>
      </trkpt>
      <trkpt lat="44.49679" lon="6.24065">
        <ele>1110</ele>
        <time>2020-04-04T15:14:10Z</time>
      </trkpt>
      <trkpt lat="44.49686" lon="6.24072">
        <ele>1111</ele>
        <time>2020-04-04T15:14:16Z</time>
      </trkpt>
      <trkpt lat="44.49694" lon="6.24075">
        <ele>1113</ele>
        <time>2020-04-04T15:14:21Z</time>
      </trkpt>
      <trkpt lat="44.49697" lon="6.24074">
        <ele>1114</ele>
        <time>2020-04-04T15:14:26Z</time>
      </trkpt>
      <trkpt lat="44.49698" lon="6.24074">
        <ele>1115</ele>
        <time>2020-04-04T15:14:32Z</time>
      </trkpt>
      <trkpt lat="44.49699" lon="6.24075">
        <ele>1115</ele>
        <time>2020-04-04T15:14:37Z</time>
      </trkpt>
      <trkpt lat="44.49703" lon="6.24079">
        <ele>1114</ele>
        <time>2020-04-04T15:14:45Z</time>
      </trkpt>
      <trkpt lat="44.49706" lon="6.24083">
        <ele>1113</ele>
        <time>2020-04-04T15:14:50Z</time>
      </trkpt>
      <trkpt lat="44.49706" lon="6.24084">
        <ele>1113</ele>
        <time>2020-04-04T15:14:55Z</time>
      </trkpt>
      <trkpt lat="44.49706" lon="6.24084">
        <ele>1113</ele>
        <time>2020-04-04T15:15:01Z</time>
      </trkpt>
      <trkpt lat="44.49706" lon="6.24083">
        <ele>1112</ele>
        <time>2020-04-04T15:15:08Z</time>
      </trkpt>
      <trkpt lat="44.49706" lon="6.24083">
        <ele>1109</ele>
        <time>2020-04-04T15:15:14Z</time>
      </trkpt>
      <trkpt lat="44.49708" lon="6.24083">
        <ele>1112</ele>
        <time>2020-04-04T15:15:19Z</time>
      </trkpt>
      <trkpt lat="44.49707" lon="6.24082">
        <ele>1115</ele>
        <time>2020-04-04T15:15:24Z</time>
      </trkpt>
      <trkpt lat="44.49708" lon="6.2408">
        <ele>1113</ele>
        <time>2020-04-04T15:15:29Z</time>
      </trkpt>
      <trkpt lat="44.49709" lon="6.24079">
        <ele>1115</ele>
        <time>2020-04-04T15:15:35Z</time>
      </trkpt>
      <trkpt lat="44.4971" lon="6.24079">
        <ele>1114</ele>
        <time>2020-04-04T15:15:40Z</time>
      </trkpt>
      <trkpt lat="44.49711" lon="6.24079">
        <ele>1114</ele>
        <time>2020-04-04T15:15:46Z</time>
      </trkpt>
      <trkpt lat="44.49711" lon="6.24079">
        <ele>1114</ele>
        <time>2020-04-04T15:15:51Z</time>
      </trkpt>
      <trkpt lat="44.49711" lon="6.24079">
        <ele>1114</ele>
        <time>2020-04-04T15:15:57Z</time>
      </trkpt>
      <trkpt lat="44.49711" lon="6.24079">
        <ele>1114</ele>
        <time>2020-04-04T15:16:03Z</time>
      </trkpt>
      <trkpt lat="44.49711" lon="6.24079">
        <ele>1114</ele>
        <time>2020-04-04T15:16:08Z</time>
      </trkpt>
      <trkpt lat="44.49712" lon="6.24079">
        <ele>1116</ele>
        <time>2020-04-04T15:16:14Z</time>
      </trkpt>
      <trkpt lat="44.49714" lon="6.24083">
        <ele>1116</ele>
        <time>2020-04-04T15:16:20Z</time>
      </trkpt>
      <trkpt lat="44.49716" lon="6.24087">
        <ele>1115</ele>
        <time>2020-04-04T15:16:25Z</time>
      </trkpt>
      <trkpt lat="44.49722" lon="6.24088">
        <ele>1114</ele>
        <time>2020-04-04T15:16:31Z</time>
      </trkpt>
      <trkpt lat="44.4973" lon="6.24093">
        <ele>1116</ele>
        <time>2020-04-04T15:16:36Z</time>
      </trkpt>
      <trkpt lat="44.49738" lon="6.24095">
        <ele>1120</ele>
        <time>2020-04-04T15:16:42Z</time>
      </trkpt>
      <trkpt lat="44.49747" lon="6.241">
        <ele>1126</ele>
        <time>2020-04-04T15:16:47Z</time>
      </trkpt>
      <trkpt lat="44.49756" lon="6.24104">
        <ele>1130</ele>
        <time>2020-04-04T15:16:53Z</time>
      </trkpt>
      <trkpt lat="44.49765" lon="6.24109">
        <ele>1133</ele>
        <time>2020-04-04T15:16:59Z</time>
      </trkpt>
      <trkpt lat="44.49774" lon="6.2412">
        <ele>1130</ele>
        <time>2020-04-04T15:17:05Z</time>
      </trkpt>
      <trkpt lat="44.4978" lon="6.24131">
        <ele>1133</ele>
        <time>2020-04-04T15:17:10Z</time>
      </trkpt>
      <trkpt lat="44.49785" lon="6.24143">
        <ele>1133</ele>
        <time>2020-04-04T15:17:16Z</time>
      </trkpt>
      <trkpt lat="44.49792" lon="6.2415">
        <ele>1134</ele>
        <time>2020-04-04T15:17:22Z</time>
      </trkpt>
      <trkpt lat="44.49806" lon="6.24167">
        <ele>1139</ele>
        <time>2020-04-04T15:17:34Z</time>
      </trkpt>
      <trkpt lat="44.49815" lon="6.2418">
        <ele>1143</ele>
        <time>2020-04-04T15:17:40Z</time>
      </trkpt>
      <trkpt lat="44.49829" lon="6.24197">
        <ele>1144</ele>
        <time>2020-04-04T15:17:46Z</time>
      </trkpt>
      <trkpt lat="44.49836" lon="6.24211">
        <ele>1145</ele>
        <time>2020-04-04T15:17:51Z</time>
      </trkpt>
      <trkpt lat="44.49843" lon="6.24218">
        <ele>1148</ele>
        <time>2020-04-04T15:17:57Z</time>
      </trkpt>
      <trkpt lat="44.49864" lon="6.24238">
        <ele>1149</ele>
        <time>2020-04-04T15:18:03Z</time>
      </trkpt>
      <trkpt lat="44.4988" lon="6.24251">
        <ele>1150</ele>
        <time>2020-04-04T15:18:08Z</time>
      </trkpt>
      <trkpt lat="44.49888" lon="6.24265">
        <ele>1150</ele>
        <time>2020-04-04T15:18:13Z</time>
      </trkpt>
      <trkpt lat="44.49892" lon="6.24273">
        <ele>1150</ele>
        <time>2020-04-04T15:18:19Z</time>
      </trkpt>
      <trkpt lat="44.49894" lon="6.24275">
        <ele>1146</ele>
        <time>2020-04-04T15:18:24Z</time>
      </trkpt>
      <trkpt lat="44.49895" lon="6.24279">
        <ele>1142</ele>
        <time>2020-04-04T15:18:30Z</time>
      </trkpt>
      <trkpt lat="44.49898" lon="6.24279">
        <ele>1144</ele>
        <time>2020-04-04T15:18:35Z</time>
      </trkpt>
      <trkpt lat="44.499" lon="6.24281">
        <ele>1144</ele>
        <time>2020-04-04T15:18:41Z</time>
      </trkpt>
      <trkpt lat="44.49902" lon="6.24284">
        <ele>1142</ele>
        <time>2020-04-04T15:18:47Z</time>
      </trkpt>
      <trkpt lat="44.49902" lon="6.24289">
        <ele>1139</ele>
        <time>2020-04-04T15:18:53Z</time>
      </trkpt>
      <trkpt lat="44.49903" lon="6.2429">
        <ele>1137</ele>
        <time>2020-04-04T15:18:58Z</time>
      </trkpt>
      <trkpt lat="44.49903" lon="6.2429">
        <ele>1136</ele>
        <time>2020-04-04T15:19:04Z</time>
      </trkpt>
      <trkpt lat="44.49903" lon="6.24291">
        <ele>1138</ele>
        <time>2020-04-04T15:19:09Z</time>
      </trkpt>
      <trkpt lat="44.49906" lon="6.24295">
        <ele>1138</ele>
        <time>2020-04-04T15:19:15Z</time>
      </trkpt>
      <trkpt lat="44.49906" lon="6.24295">
        <ele>1138</ele>
        <time>2020-04-04T15:19:21Z</time>
      </trkpt>
      <trkpt lat="44.49907" lon="6.24296">
        <ele>1139</ele>
        <time>2020-04-04T15:19:27Z</time>
      </trkpt>
      <trkpt lat="44.49909" lon="6.24298">
        <ele>1140</ele>
        <time>2020-04-04T15:19:32Z</time>
      </trkpt>
      <trkpt lat="44.49911" lon="6.24298">
        <ele>1138</ele>
        <time>2020-04-04T15:19:38Z</time>
      </trkpt>
      <trkpt lat="44.49916" lon="6.24298">
        <ele>1138</ele>
        <time>2020-04-04T15:19:43Z</time>
      </trkpt>
      <trkpt lat="44.49919" lon="6.243">
        <ele>1140</ele>
        <time>2020-04-04T15:19:49Z</time>
      </trkpt>
      <trkpt lat="44.4992" lon="6.243">
        <ele>1143</ele>
        <time>2020-04-04T15:19:54Z</time>
      </trkpt>
      <trkpt lat="44.49925" lon="6.24303">
        <ele>1145</ele>
        <time>2020-04-04T15:20:00Z</time>
      </trkpt>
      <trkpt lat="44.49932" lon="6.24308">
        <ele>1147</ele>
        <time>2020-04-04T15:20:06Z</time>
      </trkpt>
      <trkpt lat="44.49937" lon="6.24311">
        <ele>1147</ele>
        <time>2020-04-04T15:20:12Z</time>
      </trkpt>
      <trkpt lat="44.49942" lon="6.24311">
        <ele>1152</ele>
        <time>2020-04-04T15:20:18Z</time>
      </trkpt>
      <trkpt lat="44.49944" lon="6.24313">
        <ele>1152</ele>
        <time>2020-04-04T15:20:23Z</time>
      </trkpt>
      <trkpt lat="44.49952" lon="6.24317">
        <ele>1154</ele>
        <time>2020-04-04T15:20:29Z</time>
      </trkpt>
      <trkpt lat="44.49962" lon="6.24321">
        <ele>1158</ele>
        <time>2020-04-04T15:20:35Z</time>
      </trkpt>
      <trkpt lat="44.49971" lon="6.24325">
        <ele>1156</ele>
        <time>2020-04-04T15:20:40Z</time>
      </trkpt>
      <trkpt lat="44.49979" lon="6.24326">
        <ele>1157</ele>
        <time>2020-04-04T15:20:46Z</time>
      </trkpt>
      <trkpt lat="44.49984" lon="6.24328">
        <ele>1161</ele>
        <time>2020-04-04T15:20:51Z</time>
      </trkpt>
      <trkpt lat="44.49985" lon="6.24328">
        <ele>1161</ele>
        <time>2020-04-04T15:20:57Z</time>
      </trkpt>
      <trkpt lat="44.49988" lon="6.24329">
        <ele>1162</ele>
        <time>2020-04-04T15:21:03Z</time>
      </trkpt>
      <trkpt lat="44.49989" lon="6.24331">
        <ele>1162</ele>
        <time>2020-04-04T15:21:08Z</time>
      </trkpt>
      <trkpt lat="44.49992" lon="6.24334">
        <ele>1158</ele>
        <time>2020-04-04T15:21:14Z</time>
      </trkpt>
      <trkpt lat="44.49993" lon="6.24338">
        <ele>1159</ele>
        <time>2020-04-04T15:21:19Z</time>
      </trkpt>
      <trkpt lat="44.49994" lon="6.24339">
        <ele>1164</ele>
        <time>2020-04-04T15:21:25Z</time>
      </trkpt>
      <trkpt lat="44.49996" lon="6.24342">
        <ele>1165</ele>
        <time>2020-04-04T15:21:31Z</time>
      </trkpt>
      <trkpt lat="44.49996" lon="6.24346">
        <ele>1165</ele>
        <time>2020-04-04T15:21:37Z</time>
      </trkpt>
      <trkpt lat="44.49997" lon="6.24352">
        <ele>1170</ele>
        <time>2020-04-04T15:21:43Z</time>
      </trkpt>
      <trkpt lat="44.5" lon="6.24358">
        <ele>1165</ele>
        <time>2020-04-04T15:21:48Z</time>
      </trkpt>
      <trkpt lat="44.50003" lon="6.24363">
        <ele>1163</ele>
        <time>2020-04-04T15:21:54Z</time>
      </trkpt>
      <trkpt lat="44.50011" lon="6.24381">
        <ele>1167</ele>
        <time>2020-04-04T15:22:03Z</time>
      </trkpt>
      <trkpt lat="44.50023" lon="6.24391">
        <ele>1165</ele>
        <time>2020-04-04T15:22:09Z</time>
      </trkpt>
      <trkpt lat="44.50029" lon="6.244">
        <ele>1169</ele>
        <time>2020-04-04T15:22:15Z</time>
      </trkpt>
      <trkpt lat="44.50039" lon="6.24408">
        <ele>1176</ele>
        <time>2020-04-04T15:22:21Z</time>
      </trkpt>
      <trkpt lat="44.50046" lon="6.24422">
        <ele>1180</ele>
        <time>2020-04-04T15:22:27Z</time>
      </trkpt>
      <trkpt lat="44.5005" lon="6.24431">
        <ele>1182</ele>
        <time>2020-04-04T15:22:32Z</time>
      </trkpt>
      <trkpt lat="44.50056" lon="6.24441">
        <ele>1182</ele>
        <time>2020-04-04T15:22:37Z</time>
      </trkpt>
      <trkpt lat="44.50063" lon="6.24446">
        <ele>1181</ele>
        <time>2020-04-04T15:22:42Z</time>
      </trkpt>
      <trkpt lat="44.50073" lon="6.24449">
        <ele>1186</ele>
        <time>2020-04-04T15:22:48Z</time>
      </trkpt>
      <trkpt lat="44.50083" lon="6.24459">
        <ele>1188</ele>
        <time>2020-04-04T15:22:54Z</time>
      </trkpt>
      <trkpt lat="44.50086" lon="6.24464">
        <ele>1188</ele>
        <time>2020-04-04T15:22:59Z</time>
      </trkpt>
      <trkpt lat="44.50088" lon="6.24469">
        <ele>1188</ele>
        <time>2020-04-04T15:23:05Z</time>
      </trkpt>
      <trkpt lat="44.50088" lon="6.2447">
        <ele>1189</ele>
        <time>2020-04-04T15:23:10Z</time>
      </trkpt>
      <trkpt lat="44.50092" lon="6.24473">
        <ele>1189</ele>
        <time>2020-04-04T15:23:16Z</time>
      </trkpt>
      <trkpt lat="44.50095" lon="6.24478">
        <ele>1189</ele>
        <time>2020-04-04T15:23:21Z</time>
      </trkpt>
      <trkpt lat="44.50095" lon="6.24481">
        <ele>1187</ele>
        <time>2020-04-04T15:23:27Z</time>
      </trkpt>
      <trkpt lat="44.50095" lon="6.24481">
        <ele>1187</ele>
        <time>2020-04-04T15:23:32Z</time>
      </trkpt>
      <trkpt lat="44.50095" lon="6.24481">
        <ele>1187</ele>
        <time>2020-04-04T15:23:38Z</time>
      </trkpt>
      <trkpt lat="44.50095" lon="6.24483">
        <ele>1185</ele>
        <time>2020-04-04T15:23:44Z</time>
      </trkpt>
      <trkpt lat="44.50096" lon="6.2448">
        <ele>1185</ele>
        <time>2020-04-04T15:23:50Z</time>
      </trkpt>
      <trkpt lat="44.50098" lon="6.24482">
        <ele>1182</ele>
        <time>2020-04-04T15:23:55Z</time>
      </trkpt>
      <trkpt lat="44.50099" lon="6.24484">
        <ele>1182</ele>
        <time>2020-04-04T15:24:01Z</time>
      </trkpt>
      <trkpt lat="44.50096" lon="6.24483">
        <ele>1180</ele>
        <time>2020-04-04T15:24:07Z</time>
      </trkpt>
      <trkpt lat="44.50098" lon="6.24486">
        <ele>1184</ele>
        <time>2020-04-04T15:24:15Z</time>
      </trkpt>
      <trkpt lat="44.50097" lon="6.24485">
        <ele>1182</ele>
        <time>2020-04-04T15:24:21Z</time>
      </trkpt>
      <trkpt lat="44.50099" lon="6.24486">
        <ele>1186</ele>
        <time>2020-04-04T15:24:26Z</time>
      </trkpt>
      <trkpt lat="44.50101" lon="6.24486">
        <ele>1189</ele>
        <time>2020-04-04T15:24:31Z</time>
      </trkpt>
      <trkpt lat="44.50106" lon="6.24487">
        <ele>1190</ele>
        <time>2020-04-04T15:24:37Z</time>
      </trkpt>
      <trkpt lat="44.50111" lon="6.2449">
        <ele>1188</ele>
        <time>2020-04-04T15:24:43Z</time>
      </trkpt>
      <trkpt lat="44.5011" lon="6.24491">
        <ele>1190</ele>
        <time>2020-04-04T15:24:48Z</time>
      </trkpt>
      <trkpt lat="44.5011" lon="6.24494">
        <ele>1191</ele>
        <time>2020-04-04T15:24:54Z</time>
      </trkpt>
      <trkpt lat="44.5011" lon="6.24497">
        <ele>1192</ele>
        <time>2020-04-04T15:24:59Z</time>
      </trkpt>
      <trkpt lat="44.5011" lon="6.24497">
        <ele>1192</ele>
        <time>2020-04-04T15:25:04Z</time>
      </trkpt>
      <trkpt lat="44.5011" lon="6.24496">
        <ele>1193</ele>
        <time>2020-04-04T15:25:10Z</time>
      </trkpt>
      <trkpt lat="44.50114" lon="6.24499">
        <ele>1199</ele>
        <time>2020-04-04T15:25:15Z</time>
      </trkpt>
      <trkpt lat="44.50123" lon="6.24503">
        <ele>1202</ele>
        <time>2020-04-04T15:25:21Z</time>
      </trkpt>
      <trkpt lat="44.50128" lon="6.24509">
        <ele>1204</ele>
        <time>2020-04-04T15:25:26Z</time>
      </trkpt>
      <trkpt lat="44.50135" lon="6.24515">
        <ele>1206</ele>
        <time>2020-04-04T15:25:32Z</time>
      </trkpt>
      <trkpt lat="44.50137" lon="6.24522">
        <ele>1204</ele>
        <time>2020-04-04T15:25:38Z</time>
      </trkpt>
      <trkpt lat="44.50137" lon="6.24524">
        <ele>1203</ele>
        <time>2020-04-04T15:25:43Z</time>
      </trkpt>
      <trkpt lat="44.50138" lon="6.24525">
        <ele>1203</ele>
        <time>2020-04-04T15:25:48Z</time>
      </trkpt>
      <trkpt lat="44.5014" lon="6.24532">
        <ele>1199</ele>
        <time>2020-04-04T15:25:54Z</time>
      </trkpt>
      <trkpt lat="44.50144" lon="6.24534">
        <ele>1203</ele>
        <time>2020-04-04T15:26:00Z</time>
      </trkpt>
      <trkpt lat="44.50146" lon="6.24535">
        <ele>1208</ele>
        <time>2020-04-04T15:26:06Z</time>
      </trkpt>
      <trkpt lat="44.50147" lon="6.24536">
        <ele>1205</ele>
        <time>2020-04-04T15:26:11Z</time>
      </trkpt>
      <trkpt lat="44.50151" lon="6.2454">
        <ele>1207</ele>
        <time>2020-04-04T15:26:17Z</time>
      </trkpt>
      <trkpt lat="44.50157" lon="6.24543">
        <ele>1214</ele>
        <time>2020-04-04T15:26:23Z</time>
      </trkpt>
      <trkpt lat="44.50162" lon="6.24548">
        <ele>1213</ele>
        <time>2020-04-04T15:26:28Z</time>
      </trkpt>
      <trkpt lat="44.50169" lon="6.24555">
        <ele>1212</ele>
        <time>2020-04-04T15:26:33Z</time>
      </trkpt>
      <trkpt lat="44.5017" lon="6.24557">
        <ele>1214</ele>
        <time>2020-04-04T15:26:39Z</time>
      </trkpt>
      <trkpt lat="44.50171" lon="6.24558">
        <ele>1214</ele>
        <time>2020-04-04T15:26:44Z</time>
      </trkpt>
      <trkpt lat="44.50171" lon="6.24558">
        <ele>1214</ele>
        <time>2020-04-04T15:26:50Z</time>
      </trkpt>
      <trkpt lat="44.50175" lon="6.24558">
        <ele>1213</ele>
        <time>2020-04-04T15:26:56Z</time>
      </trkpt>
      <trkpt lat="44.50182" lon="6.24559">
        <ele>1214</ele>
        <time>2020-04-04T15:27:02Z</time>
      </trkpt>
      <trkpt lat="44.50187" lon="6.2456">
        <ele>1210</ele>
        <time>2020-04-04T15:27:08Z</time>
      </trkpt>
      <trkpt lat="44.50188" lon="6.24562">
        <ele>1205</ele>
        <time>2020-04-04T15:27:14Z</time>
      </trkpt>
      <trkpt lat="44.50183" lon="6.24566">
        <ele>1201</ele>
        <time>2020-04-04T15:27:20Z</time>
      </trkpt>
      <trkpt lat="44.5018" lon="6.24565">
        <ele>1205</ele>
        <time>2020-04-04T15:27:25Z</time>
      </trkpt>
      <trkpt lat="44.50184" lon="6.2456">
        <ele>1205</ele>
        <time>2020-04-04T15:27:33Z</time>
      </trkpt>
      <trkpt lat="44.50192" lon="6.24566">
        <ele>1207</ele>
        <time>2020-04-04T15:27:38Z</time>
      </trkpt>
      <trkpt lat="44.50195" lon="6.24566">
        <ele>1209</ele>
        <time>2020-04-04T15:27:43Z</time>
      </trkpt>
      <trkpt lat="44.50198" lon="6.24566">
        <ele>1212</ele>
        <time>2020-04-04T15:27:49Z</time>
      </trkpt>
      <trkpt lat="44.50202" lon="6.24567">
        <ele>1217</ele>
        <time>2020-04-04T15:27:54Z</time>
      </trkpt>
      <trkpt lat="44.50217" lon="6.24567">
        <ele>1220</ele>
        <time>2020-04-04T15:28:00Z</time>
      </trkpt>
      <trkpt lat="44.5022" lon="6.24566">
        <ele>1220</ele>
        <time>2020-04-04T15:28:05Z</time>
      </trkpt>
      <trkpt lat="44.50217" lon="6.24565">
        <ele>1217</ele>
        <time>2020-04-04T15:28:10Z</time>
      </trkpt>
      <trkpt lat="44.50218" lon="6.24559">
        <ele>1219</ele>
        <time>2020-04-04T15:28:16Z</time>
      </trkpt>
      <trkpt lat="44.50222" lon="6.2455">
        <ele>1221</ele>
        <time>2020-04-04T15:28:21Z</time>
      </trkpt>
      <trkpt lat="44.50225" lon="6.24539">
        <ele>1224</ele>
        <time>2020-04-04T15:28:26Z</time>
      </trkpt>
      <trkpt lat="44.50232" lon="6.24524">
        <ele>1223</ele>
        <time>2020-04-04T15:28:32Z</time>
      </trkpt>
      <trkpt lat="44.50239" lon="6.24513">
        <ele>1224</ele>
        <time>2020-04-04T15:28:37Z</time>
      </trkpt>
      <trkpt lat="44.50247" lon="6.24507">
        <ele>1222</ele>
        <time>2020-04-04T15:28:43Z</time>
      </trkpt>
      <trkpt lat="44.50254" lon="6.2451">
        <ele>1224</ele>
        <time>2020-04-04T15:28:48Z</time>
      </trkpt>
      <trkpt lat="44.50257" lon="6.24516">
        <ele>1230</ele>
        <time>2020-04-04T15:28:54Z</time>
      </trkpt>
      <trkpt lat="44.50261" lon="6.24523">
        <ele>1236</ele>
        <time>2020-04-04T15:28:59Z</time>
      </trkpt>
      <trkpt lat="44.50267" lon="6.24531">
        <ele>1242</ele>
        <time>2020-04-04T15:29:04Z</time>
      </trkpt>
      <trkpt lat="44.50275" lon="6.24541">
        <ele>1244</ele>
        <time>2020-04-04T15:29:10Z</time>
      </trkpt>
      <trkpt lat="44.50283" lon="6.24551">
        <ele>1247</ele>
        <time>2020-04-04T15:29:16Z</time>
      </trkpt>
      <trkpt lat="44.50291" lon="6.24561">
        <ele>1244</ele>
        <time>2020-04-04T15:29:22Z</time>
      </trkpt>
      <trkpt lat="44.503" lon="6.24565">
        <ele>1242</ele>
        <time>2020-04-04T15:29:27Z</time>
      </trkpt>
      <trkpt lat="44.50308" lon="6.24565">
        <ele>1243</ele>
        <time>2020-04-04T15:29:32Z</time>
      </trkpt>
      <trkpt lat="44.50317" lon="6.24565">
        <ele>1249</ele>
        <time>2020-04-04T15:29:38Z</time>
      </trkpt>
      <trkpt lat="44.50325" lon="6.24569">
        <ele>1252</ele>
        <time>2020-04-04T15:29:43Z</time>
      </trkpt>
      <trkpt lat="44.5033" lon="6.24582">
        <ele>1255</ele>
        <time>2020-04-04T15:29:49Z</time>
      </trkpt>
      <trkpt lat="44.50331" lon="6.24592">
        <ele>1259</ele>
        <time>2020-04-04T15:29:55Z</time>
      </trkpt>
      <trkpt lat="44.50329" lon="6.24605">
        <ele>1256</ele>
        <time>2020-04-04T15:30:01Z</time>
      </trkpt>
      <trkpt lat="44.50326" lon="6.2462">
        <ele>1259</ele>
        <time>2020-04-04T15:30:07Z</time>
      </trkpt>
      <trkpt lat="44.5032" lon="6.24637">
        <ele>1262</ele>
        <time>2020-04-04T15:30:13Z</time>
      </trkpt>
      <trkpt lat="44.50315" lon="6.24651">
        <ele>1264</ele>
        <time>2020-04-04T15:30:18Z</time>
      </trkpt>
      <trkpt lat="44.50306" lon="6.24671">
        <ele>1263</ele>
        <time>2020-04-04T15:30:24Z</time>
      </trkpt>
      <trkpt lat="44.50302" lon="6.24691">
        <ele>1263</ele>
        <time>2020-04-04T15:30:29Z</time>
      </trkpt>
      <trkpt lat="44.50304" lon="6.24713">
        <ele>1263</ele>
        <time>2020-04-04T15:30:35Z</time>
      </trkpt>
      <trkpt lat="44.50312" lon="6.24733">
        <ele>1262</ele>
        <time>2020-04-04T15:30:40Z</time>
      </trkpt>
      <trkpt lat="44.50312" lon="6.24769">
        <ele>1260</ele>
        <time>2020-04-04T15:30:46Z</time>
      </trkpt>
      <trkpt lat="44.50303" lon="6.24771">
        <ele>1261</ele>
        <time>2020-04-04T15:30:51Z</time>
      </trkpt>
      <trkpt lat="44.50286" lon="6.24776">
        <ele>1262</ele>
        <time>2020-04-04T15:30:57Z</time>
      </trkpt>
      <trkpt lat="44.50274" lon="6.24778">
        <ele>1265</ele>
        <time>2020-04-04T15:31:02Z</time>
      </trkpt>
      <trkpt lat="44.50254" lon="6.24769">
        <ele>1265</ele>
        <time>2020-04-04T15:31:08Z</time>
      </trkpt>
      <trkpt lat="44.50234" lon="6.2474">
        <ele>1258</ele>
        <time>2020-04-04T15:31:13Z</time>
      </trkpt>
      <trkpt lat="44.50217" lon="6.24747">
        <ele>1255</ele>
        <time>2020-04-04T15:31:18Z</time>
      </trkpt>
      <trkpt lat="44.50203" lon="6.24777">
        <ele>1253</ele>
        <time>2020-04-04T15:31:24Z</time>
      </trkpt>
      <trkpt lat="44.50191" lon="6.24798">
        <ele>1256</ele>
        <time>2020-04-04T15:31:30Z</time>
      </trkpt>
      <trkpt lat="44.5018" lon="6.24814">
        <ele>1259</ele>
        <time>2020-04-04T15:31:36Z</time>
      </trkpt>
      <trkpt lat="44.50173" lon="6.2483">
        <ele>1263</ele>
        <time>2020-04-04T15:31:41Z</time>
      </trkpt>
      <trkpt lat="44.50162" lon="6.24847">
        <ele>1262</ele>
        <time>2020-04-04T15:31:47Z</time>
      </trkpt>
      <trkpt lat="44.50163" lon="6.24862">
        <ele>1261</ele>
        <time>2020-04-04T15:31:53Z</time>
      </trkpt>
      <trkpt lat="44.50174" lon="6.24854">
        <ele>1261</ele>
        <time>2020-04-04T15:31:59Z</time>
      </trkpt>
      <trkpt lat="44.5018" lon="6.24839">
        <ele>1259</ele>
        <time>2020-04-04T15:32:04Z</time>
      </trkpt>
      <trkpt lat="44.50192" lon="6.2483">
        <ele>1260</ele>
        <time>2020-04-04T15:32:10Z</time>
      </trkpt>
      <trkpt lat="44.50204" lon="6.24822">
        <ele>1261</ele>
        <time>2020-04-04T15:32:16Z</time>
      </trkpt>
      <trkpt lat="44.50216" lon="6.24819">
        <ele>1260</ele>
        <time>2020-04-04T15:32:21Z</time>
      </trkpt>
      <trkpt lat="44.50227" lon="6.24811">
        <ele>1261</ele>
        <time>2020-04-04T15:32:27Z</time>
      </trkpt>
      <trkpt lat="44.50237" lon="6.24804">
        <ele>1263</ele>
        <time>2020-04-04T15:32:32Z</time>
      </trkpt>
      <trkpt lat="44.50251" lon="6.24802">
        <ele>1265</ele>
        <time>2020-04-04T15:32:38Z</time>
      </trkpt>
      <trkpt lat="44.5026" lon="6.24808">
        <ele>1264</ele>
        <time>2020-04-04T15:32:44Z</time>
      </trkpt>
      <trkpt lat="44.50261" lon="6.24809">
        <ele>1266</ele>
        <time>2020-04-04T15:32:50Z</time>
      </trkpt>
      <trkpt lat="44.50265" lon="6.24817">
        <ele>1266</ele>
        <time>2020-04-04T15:32:56Z</time>
      </trkpt>
      <trkpt lat="44.50258" lon="6.24824">
        <ele>1269</ele>
        <time>2020-04-04T15:33:01Z</time>
      </trkpt>
      <trkpt lat="44.50246" lon="6.24829">
        <ele>1271</ele>
        <time>2020-04-04T15:33:07Z</time>
      </trkpt>
      <trkpt lat="44.50238" lon="6.24842">
        <ele>1274</ele>
        <time>2020-04-04T15:33:13Z</time>
      </trkpt>
      <trkpt lat="44.50228" lon="6.24851">
        <ele>1276</ele>
        <time>2020-04-04T15:33:18Z</time>
      </trkpt>
      <trkpt lat="44.50219" lon="6.24858">
        <ele>1278</ele>
        <time>2020-04-04T15:33:23Z</time>
      </trkpt>
      <trkpt lat="44.50211" lon="6.24869">
        <ele>1285</ele>
        <time>2020-04-04T15:33:28Z</time>
      </trkpt>
      <trkpt lat="44.50203" lon="6.24884">
        <ele>1286</ele>
        <time>2020-04-04T15:33:34Z</time>
      </trkpt>
      <trkpt lat="44.50194" lon="6.24899">
        <ele>1285</ele>
        <time>2020-04-04T15:33:40Z</time>
      </trkpt>
      <trkpt lat="44.50191" lon="6.24919">
        <ele>1287</ele>
        <time>2020-04-04T15:33:46Z</time>
      </trkpt>
      <trkpt lat="44.50193" lon="6.24936">
        <ele>1287</ele>
        <time>2020-04-04T15:33:51Z</time>
      </trkpt>
      <trkpt lat="44.50204" lon="6.24957">
        <ele>1289</ele>
        <time>2020-04-04T15:33:57Z</time>
      </trkpt>
      <trkpt lat="44.50211" lon="6.24969">
        <ele>1291</ele>
        <time>2020-04-04T15:34:02Z</time>
      </trkpt>
      <trkpt lat="44.5022" lon="6.24986">
        <ele>1289</ele>
        <time>2020-04-04T15:34:07Z</time>
      </trkpt>
      <trkpt lat="44.50225" lon="6.25012">
        <ele>1289</ele>
        <time>2020-04-04T15:34:13Z</time>
      </trkpt>
      <trkpt lat="44.50212" lon="6.25025">
        <ele>1295</ele>
        <time>2020-04-04T15:34:19Z</time>
      </trkpt>
      <trkpt lat="44.50197" lon="6.25021">
        <ele>1300</ele>
        <time>2020-04-04T15:34:24Z</time>
      </trkpt>
      <trkpt lat="44.50181" lon="6.25023">
        <ele>1303</ele>
        <time>2020-04-04T15:34:30Z</time>
      </trkpt>
      <trkpt lat="44.50166" lon="6.25015">
        <ele>1295</ele>
        <time>2020-04-04T15:34:35Z</time>
      </trkpt>
      <trkpt lat="44.50155" lon="6.25026">
        <ele>1294</ele>
        <time>2020-04-04T15:34:40Z</time>
      </trkpt>
      <trkpt lat="44.50157" lon="6.25053">
        <ele>1294</ele>
        <time>2020-04-04T15:34:46Z</time>
      </trkpt>
      <trkpt lat="44.50156" lon="6.25075">
        <ele>1294</ele>
        <time>2020-04-04T15:34:52Z</time>
      </trkpt>
      <trkpt lat="44.50161" lon="6.25092">
        <ele>1299</ele>
        <time>2020-04-04T15:34:57Z</time>
      </trkpt>
      <trkpt lat="44.5017" lon="6.25105">
        <ele>1302</ele>
        <time>2020-04-04T15:35:02Z</time>
      </trkpt>
      <trkpt lat="44.5017" lon="6.25126">
        <ele>1305</ele>
        <time>2020-04-04T15:35:08Z</time>
      </trkpt>
      <trkpt lat="44.50164" lon="6.25143">
        <ele>1311</ele>
        <time>2020-04-04T15:35:13Z</time>
      </trkpt>
      <trkpt lat="44.50153" lon="6.25161">
        <ele>1316</ele>
        <time>2020-04-04T15:35:19Z</time>
      </trkpt>
      <trkpt lat="44.50147" lon="6.25168">
        <ele>1316</ele>
        <time>2020-04-04T15:35:24Z</time>
      </trkpt>
      <trkpt lat="44.5014" lon="6.25178">
        <ele>1317</ele>
        <time>2020-04-04T15:35:30Z</time>
      </trkpt>
      <trkpt lat="44.50138" lon="6.25193">
        <ele>1320</ele>
        <time>2020-04-04T15:35:36Z</time>
      </trkpt>
      <trkpt lat="44.50142" lon="6.25202">
        <ele>1320</ele>
        <time>2020-04-04T15:35:41Z</time>
      </trkpt>
      <trkpt lat="44.50147" lon="6.25213">
        <ele>1322</ele>
        <time>2020-04-04T15:35:47Z</time>
      </trkpt>
      <trkpt lat="44.50152" lon="6.25221">
        <ele>1324</ele>
        <time>2020-04-04T15:35:52Z</time>
      </trkpt>
      <trkpt lat="44.50157" lon="6.25229">
        <ele>1328</ele>
        <time>2020-04-04T15:35:57Z</time>
      </trkpt>
      <trkpt lat="44.50161" lon="6.25239">
        <ele>1328</ele>
        <time>2020-04-04T15:36:02Z</time>
      </trkpt>
      <trkpt lat="44.50159" lon="6.25261">
        <ele>1326</ele>
        <time>2020-04-04T15:36:08Z</time>
      </trkpt>
      <trkpt lat="44.50153" lon="6.2527">
        <ele>1326</ele>
        <time>2020-04-04T15:36:13Z</time>
      </trkpt>
      <trkpt lat="44.50141" lon="6.25272">
        <ele>1329</ele>
        <time>2020-04-04T15:36:19Z</time>
      </trkpt>
      <trkpt lat="44.50129" lon="6.2527">
        <ele>1324</ele>
        <time>2020-04-04T15:36:24Z</time>
      </trkpt>
      <trkpt lat="44.50118" lon="6.25279">
        <ele>1325</ele>
        <time>2020-04-04T15:36:30Z</time>
      </trkpt>
      <trkpt lat="44.50114" lon="6.25295">
        <ele>1329</ele>
        <time>2020-04-04T15:36:35Z</time>
      </trkpt>
      <trkpt lat="44.50106" lon="6.25314">
        <ele>1327</ele>
        <time>2020-04-04T15:36:41Z</time>
      </trkpt>
      <trkpt lat="44.50098" lon="6.25335">
        <ele>1331</ele>
        <time>2020-04-04T15:36:47Z</time>
      </trkpt>
      <trkpt lat="44.50086" lon="6.25356">
        <ele>1333</ele>
        <time>2020-04-04T15:36:53Z</time>
      </trkpt>
      <trkpt lat="44.5008" lon="6.25372">
        <ele>1334</ele>
        <time>2020-04-04T15:36:58Z</time>
      </trkpt>
      <trkpt lat="44.50088" lon="6.25391">
        <ele>1340</ele>
        <time>2020-04-04T15:37:04Z</time>
      </trkpt>
      <trkpt lat="44.50095" lon="6.25407">
        <ele>1336</ele>
        <time>2020-04-04T15:37:10Z</time>
      </trkpt>
      <trkpt lat="44.50103" lon="6.25422">
        <ele>1335</ele>
        <time>2020-04-04T15:37:15Z</time>
      </trkpt>
      <trkpt lat="44.50116" lon="6.25446">
        <ele>1332</ele>
        <time>2020-04-04T15:37:21Z</time>
      </trkpt>
      <trkpt lat="44.50126" lon="6.25463">
        <ele>1330</ele>
        <time>2020-04-04T15:37:26Z</time>
      </trkpt>
      <trkpt lat="44.5014" lon="6.25489">
        <ele>1326</ele>
        <time>2020-04-04T15:37:32Z</time>
      </trkpt>
      <trkpt lat="44.50153" lon="6.25507">
        <ele>1320</ele>
        <time>2020-04-04T15:37:37Z</time>
      </trkpt>
      <trkpt lat="44.50164" lon="6.25514">
        <ele>1317</ele>
        <time>2020-04-04T15:37:43Z</time>
      </trkpt>
      <trkpt lat="44.50165" lon="6.25515">
        <ele>1316</ele>
        <time>2020-04-04T15:37:48Z</time>
      </trkpt>
      <trkpt lat="44.50166" lon="6.25516">
        <ele>1316</ele>
        <time>2020-04-04T15:37:54Z</time>
      </trkpt>
      <trkpt lat="44.50167" lon="6.25513">
        <ele>1313</ele>
        <time>2020-04-04T15:38:00Z</time>
      </trkpt>
      <trkpt lat="44.50167" lon="6.25514">
        <ele>1313</ele>
        <time>2020-04-04T15:38:05Z</time>
      </trkpt>
      <trkpt lat="44.50167" lon="6.25514">
        <ele>1313</ele>
        <time>2020-04-04T15:38:10Z</time>
      </trkpt>
      <trkpt lat="44.50167" lon="6.25514">
        <ele>1313</ele>
        <time>2020-04-04T15:38:15Z</time>
      </trkpt>
      <trkpt lat="44.50167" lon="6.25514">
        <ele>1314</ele>
        <time>2020-04-04T15:38:21Z</time>
      </trkpt>
      <trkpt lat="44.50168" lon="6.25515">
        <ele>1314</ele>
        <time>2020-04-04T15:38:26Z</time>
      </trkpt>
      <trkpt lat="44.50169" lon="6.25516">
        <ele>1312</ele>
        <time>2020-04-04T15:38:32Z</time>
      </trkpt>
      <trkpt lat="44.50169" lon="6.25516">
        <ele>1312</ele>
        <time>2020-04-04T15:38:38Z</time>
      </trkpt>
      <trkpt lat="44.50169" lon="6.25517">
        <ele>1313</ele>
        <time>2020-04-04T15:38:44Z</time>
      </trkpt>
      <trkpt lat="44.5017" lon="6.25517">
        <ele>1312</ele>
        <time>2020-04-04T15:38:49Z</time>
      </trkpt>
      <trkpt lat="44.50171" lon="6.25518">
        <ele>1315</ele>
        <time>2020-04-04T15:38:55Z</time>
      </trkpt>
      <trkpt lat="44.50172" lon="6.25519">
        <ele>1315</ele>
        <time>2020-04-04T15:39:01Z</time>
      </trkpt>
      <trkpt lat="44.50173" lon="6.25519">
        <ele>1312</ele>
        <time>2020-04-04T15:39:07Z</time>
      </trkpt>
      <trkpt lat="44.50175" lon="6.25521">
        <ele>1313</ele>
        <time>2020-04-04T15:39:12Z</time>
      </trkpt>
      <trkpt lat="44.50174" lon="6.25524">
        <ele>1315</ele>
        <time>2020-04-04T15:39:18Z</time>
      </trkpt>
      <trkpt lat="44.50174" lon="6.25529">
        <ele>1315</ele>
        <time>2020-04-04T15:39:24Z</time>
      </trkpt>
      <trkpt lat="44.50178" lon="6.2554">
        <ele>1311</ele>
        <time>2020-04-04T15:39:33Z</time>
      </trkpt>
      <trkpt lat="44.5018" lon="6.25542">
        <ele>1311</ele>
        <time>2020-04-04T15:39:39Z</time>
      </trkpt>
      <trkpt lat="44.50188" lon="6.25546">
        <ele>1309</ele>
        <time>2020-04-04T15:39:45Z</time>
      </trkpt>
      <trkpt lat="44.50189" lon="6.25546">
        <ele>1307</ele>
        <time>2020-04-04T15:39:50Z</time>
      </trkpt>
      <trkpt lat="44.50189" lon="6.25547">
        <ele>1307</ele>
        <time>2020-04-04T15:39:56Z</time>
      </trkpt>
      <trkpt lat="44.50189" lon="6.2555">
        <ele>1307</ele>
        <time>2020-04-04T15:40:02Z</time>
      </trkpt>
      <trkpt lat="44.50182" lon="6.25564">
        <ele>1309</ele>
        <time>2020-04-04T15:40:07Z</time>
      </trkpt>
      <trkpt lat="44.50174" lon="6.25577">
        <ele>1310</ele>
        <time>2020-04-04T15:40:12Z</time>
      </trkpt>
      <trkpt lat="44.50164" lon="6.25591">
        <ele>1311</ele>
        <time>2020-04-04T15:40:18Z</time>
      </trkpt>
      <trkpt lat="44.50158" lon="6.25611">
        <ele>1311</ele>
        <time>2020-04-04T15:40:24Z</time>
      </trkpt>
      <trkpt lat="44.50161" lon="6.25619">
        <ele>1311</ele>
        <time>2020-04-04T15:40:29Z</time>
      </trkpt>
      <trkpt lat="44.50155" lon="6.25624">
        <ele>1310</ele>
        <time>2020-04-04T15:40:35Z</time>
      </trkpt>
      <trkpt lat="44.50148" lon="6.25633">
        <ele>1312</ele>
        <time>2020-04-04T15:40:40Z</time>
      </trkpt>
      <trkpt lat="44.50146" lon="6.25651">
        <ele>1309</ele>
        <time>2020-04-04T15:40:45Z</time>
      </trkpt>
      <trkpt lat="44.50142" lon="6.25663">
        <ele>1310</ele>
        <time>2020-04-04T15:40:50Z</time>
      </trkpt>
      <trkpt lat="44.50141" lon="6.25666">
        <ele>1310</ele>
        <time>2020-04-04T15:40:56Z</time>
      </trkpt>
      <trkpt lat="44.5014" lon="6.25667">
        <ele>1308</ele>
        <time>2020-04-04T15:41:02Z</time>
      </trkpt>
      <trkpt lat="44.50139" lon="6.25667">
        <ele>1309</ele>
        <time>2020-04-04T15:41:08Z</time>
      </trkpt>
      <trkpt lat="44.50139" lon="6.25667">
        <ele>1309</ele>
        <time>2020-04-04T15:41:14Z</time>
      </trkpt>
      <trkpt lat="44.50139" lon="6.25669">
        <ele>1309</ele>
        <time>2020-04-04T15:41:19Z</time>
      </trkpt>
      <trkpt lat="44.50138" lon="6.25674">
        <ele>1310</ele>
        <time>2020-04-04T15:41:24Z</time>
      </trkpt>
      <trkpt lat="44.5014" lon="6.25678">
        <ele>1310</ele>
        <time>2020-04-04T15:41:30Z</time>
      </trkpt>
      <trkpt lat="44.5014" lon="6.25683">
        <ele>1310</ele>
        <time>2020-04-04T15:41:35Z</time>
      </trkpt>
      <trkpt lat="44.50131" lon="6.25699">
        <ele>1309</ele>
        <time>2020-04-04T15:41:41Z</time>
      </trkpt>
      <trkpt lat="44.50125" lon="6.25704">
        <ele>1310</ele>
        <time>2020-04-04T15:41:46Z</time>
      </trkpt>
      <trkpt lat="44.50112" lon="6.257">
        <ele>1312</ele>
        <time>2020-04-04T15:41:52Z</time>
      </trkpt>
      <trkpt lat="44.50099" lon="6.25692">
        <ele>1311</ele>
        <time>2020-04-04T15:41:58Z</time>
      </trkpt>
      <trkpt lat="44.50086" lon="6.25679">
        <ele>1313</ele>
        <time>2020-04-04T15:42:03Z</time>
      </trkpt>
      <trkpt lat="44.50071" lon="6.25666">
        <ele>1312</ele>
        <time>2020-04-04T15:42:09Z</time>
      </trkpt>
      <trkpt lat="44.50053" lon="6.25647">
        <ele>1308</ele>
        <time>2020-04-04T15:42:15Z</time>
      </trkpt>
      <trkpt lat="44.50039" lon="6.25635">
        <ele>1301</ele>
        <time>2020-04-04T15:42:21Z</time>
      </trkpt>
      <trkpt lat="44.50026" lon="6.25633">
        <ele>1297</ele>
        <time>2020-04-04T15:42:26Z</time>
      </trkpt>
      <trkpt lat="44.50013" lon="6.25635">
        <ele>1295</ele>
        <time>2020-04-04T15:42:31Z</time>
      </trkpt>
      <trkpt lat="44.49997" lon="6.25647">
        <ele>1292</ele>
        <time>2020-04-04T15:42:37Z</time>
      </trkpt>
      <trkpt lat="44.4999" lon="6.25653">
        <ele>1292</ele>
        <time>2020-04-04T15:42:43Z</time>
      </trkpt>
      <trkpt lat="44.49973" lon="6.25655">
        <ele>1289</ele>
        <time>2020-04-04T15:42:48Z</time>
      </trkpt>
      <trkpt lat="44.49948" lon="6.25661">
        <ele>1290</ele>
        <time>2020-04-04T15:42:53Z</time>
      </trkpt>
      <trkpt lat="44.49915" lon="6.25681">
        <ele>1281</ele>
        <time>2020-04-04T15:42:59Z</time>
      </trkpt>
      <trkpt lat="44.49907" lon="6.25693">
        <ele>1281</ele>
        <time>2020-04-04T15:43:05Z</time>
      </trkpt>
      <trkpt lat="44.49901" lon="6.2569">
        <ele>1283</ele>
        <time>2020-04-04T15:43:11Z</time>
      </trkpt>
      <trkpt lat="44.49897" lon="6.25688">
        <ele>1284</ele>
        <time>2020-04-04T15:43:16Z</time>
      </trkpt>
      <trkpt lat="44.49897" lon="6.25686">
        <ele>1287</ele>
        <time>2020-04-04T15:43:22Z</time>
      </trkpt>
      <trkpt lat="44.49891" lon="6.25676">
        <ele>1289</ele>
        <time>2020-04-04T15:43:28Z</time>
      </trkpt>
      <trkpt lat="44.49888" lon="6.25671">
        <ele>1289</ele>
        <time>2020-04-04T15:43:34Z</time>
      </trkpt>
      <trkpt lat="44.49886" lon="6.25668">
        <ele>1289</ele>
        <time>2020-04-04T15:43:39Z</time>
      </trkpt>
      <trkpt lat="44.49886" lon="6.25667">
        <ele>1287</ele>
        <time>2020-04-04T15:43:45Z</time>
      </trkpt>
      <trkpt lat="44.49885" lon="6.25665">
        <ele>1290</ele>
        <time>2020-04-04T15:43:50Z</time>
      </trkpt>
      <trkpt lat="44.49885" lon="6.25665">
        <ele>1293</ele>
        <time>2020-04-04T15:43:56Z</time>
      </trkpt>
      <trkpt lat="44.49885" lon="6.25666">
        <ele>1293</ele>
        <time>2020-04-04T15:44:01Z</time>
      </trkpt>
      <trkpt lat="44.49882" lon="6.25667">
        <ele>1281</ele>
        <time>2020-04-04T15:44:07Z</time>
      </trkpt>
      <trkpt lat="44.49875" lon="6.25658">
        <ele>1283</ele>
        <time>2020-04-04T15:44:13Z</time>
      </trkpt>
      <trkpt lat="44.49872" lon="6.25653">
        <ele>1287</ele>
        <time>2020-04-04T15:44:18Z</time>
      </trkpt>
      <trkpt lat="44.49865" lon="6.25648">
        <ele>1288</ele>
        <time>2020-04-04T15:44:23Z</time>
      </trkpt>
      <trkpt lat="44.49854" lon="6.25639">
        <ele>1290</ele>
        <time>2020-04-04T15:44:29Z</time>
      </trkpt>
      <trkpt lat="44.49835" lon="6.25613">
        <ele>1289</ele>
        <time>2020-04-04T15:44:34Z</time>
      </trkpt>
      <trkpt lat="44.49821" lon="6.25599">
        <ele>1286</ele>
        <time>2020-04-04T15:44:39Z</time>
      </trkpt>
      <trkpt lat="44.49813" lon="6.25591">
        <ele>1288</ele>
        <time>2020-04-04T15:44:44Z</time>
      </trkpt>
      <trkpt lat="44.49804" lon="6.25584">
        <ele>1290</ele>
        <time>2020-04-04T15:44:53Z</time>
      </trkpt>
      <trkpt lat="44.498" lon="6.25578">
        <ele>1285</ele>
        <time>2020-04-04T15:44:58Z</time>
      </trkpt>
      <trkpt lat="44.49801" lon="6.25575">
        <ele>1288</ele>
        <time>2020-04-04T15:45:04Z</time>
      </trkpt>
      <trkpt lat="44.49802" lon="6.25574">
        <ele>1286</ele>
        <time>2020-04-04T15:45:10Z</time>
      </trkpt>
      <trkpt lat="44.498" lon="6.25573">
        <ele>1283</ele>
        <time>2020-04-04T15:45:15Z</time>
      </trkpt>
      <trkpt lat="44.49796" lon="6.25567">
        <ele>1280</ele>
        <time>2020-04-04T15:45:21Z</time>
      </trkpt>
      <trkpt lat="44.49795" lon="6.25565">
        <ele>1275</ele>
        <time>2020-04-04T15:45:27Z</time>
      </trkpt>
      <trkpt lat="44.4979" lon="6.25568">
        <ele>1265</ele>
        <time>2020-04-04T15:45:32Z</time>
      </trkpt>
      <trkpt lat="44.49788" lon="6.25567">
        <ele>1266</ele>
        <time>2020-04-04T15:45:38Z</time>
      </trkpt>
      <trkpt lat="44.49786" lon="6.25565">
        <ele>1262</ele>
        <time>2020-04-04T15:45:45Z</time>
      </trkpt>
      <trkpt lat="44.49789" lon="6.25563">
        <ele>1265</ele>
        <time>2020-04-04T15:45:50Z</time>
      </trkpt>
      <trkpt lat="44.49792" lon="6.25564">
        <ele>1264</ele>
        <time>2020-04-04T15:45:55Z</time>
      </trkpt>
      <trkpt lat="44.49798" lon="6.25562">
        <ele>1265</ele>
        <time>2020-04-04T15:46:01Z</time>
      </trkpt>
      <trkpt lat="44.49801" lon="6.25562">
        <ele>1266</ele>
        <time>2020-04-04T15:46:07Z</time>
      </trkpt>
      <trkpt lat="44.49802" lon="6.25561">
        <ele>1269</ele>
        <time>2020-04-04T15:46:12Z</time>
      </trkpt>
      <trkpt lat="44.49806" lon="6.25561">
        <ele>1272</ele>
        <time>2020-04-04T15:46:18Z</time>
      </trkpt>
      <trkpt lat="44.49808" lon="6.25559">
        <ele>1275</ele>
        <time>2020-04-04T15:46:24Z</time>
      </trkpt>
      <trkpt lat="44.49809" lon="6.25562">
        <ele>1275</ele>
        <time>2020-04-04T15:46:29Z</time>
      </trkpt>
      <trkpt lat="44.4981" lon="6.25564">
        <ele>1276</ele>
        <time>2020-04-04T15:46:34Z</time>
      </trkpt>
      <trkpt lat="44.49812" lon="6.2557">
        <ele>1272</ele>
        <time>2020-04-04T15:46:40Z</time>
      </trkpt>
      <trkpt lat="44.49811" lon="6.25572">
        <ele>1270</ele>
        <time>2020-04-04T15:46:45Z</time>
      </trkpt>
      <trkpt lat="44.49809" lon="6.25577">
        <ele>1269</ele>
        <time>2020-04-04T15:46:50Z</time>
      </trkpt>
      <trkpt lat="44.4981" lon="6.25581">
        <ele>1268</ele>
        <time>2020-04-04T15:46:55Z</time>
      </trkpt>
      <trkpt lat="44.4981" lon="6.25581">
        <ele>1267</ele>
        <time>2020-04-04T15:47:01Z</time>
      </trkpt>
      <trkpt lat="44.4981" lon="6.25581">
        <ele>1267</ele>
        <time>2020-04-04T15:47:07Z</time>
      </trkpt>
      <trkpt lat="44.49811" lon="6.2558">
        <ele>1268</ele>
        <time>2020-04-04T15:47:12Z</time>
      </trkpt>
      <trkpt lat="44.49812" lon="6.25576">
        <ele>1266</ele>
        <time>2020-04-04T15:47:18Z</time>
      </trkpt>
      <trkpt lat="44.49816" lon="6.25574">
        <ele>1266</ele>
        <time>2020-04-04T15:47:24Z</time>
      </trkpt>
      <trkpt lat="44.49817" lon="6.25573">
        <ele>1267</ele>
        <time>2020-04-04T15:47:29Z</time>
      </trkpt>
      <trkpt lat="44.49817" lon="6.25574">
        <ele>1268</ele>
        <time>2020-04-04T15:47:35Z</time>
      </trkpt>
      <trkpt lat="44.49817" lon="6.25574">
        <ele>1267</ele>
        <time>2020-04-04T15:47:40Z</time>
      </trkpt>
      <trkpt lat="44.49817" lon="6.25574">
        <ele>1267</ele>
        <time>2020-04-04T15:47:46Z</time>
      </trkpt>
      <trkpt lat="44.49817" lon="6.25574">
        <ele>1267</ele>
        <time>2020-04-04T15:47:52Z</time>
      </trkpt>
      <trkpt lat="44.49819" lon="6.25577">
        <ele>1267</ele>
        <time>2020-04-04T15:47:57Z</time>
      </trkpt>
      <trkpt lat="44.4982" lon="6.25581">
        <ele>1266</ele>
        <time>2020-04-04T15:48:03Z</time>
      </trkpt>
      <trkpt lat="44.4982" lon="6.25582">
        <ele>1266</ele>
        <time>2020-04-04T15:48:08Z</time>
      </trkpt>
      <trkpt lat="44.49819" lon="6.25583">
        <ele>1269</ele>
        <time>2020-04-04T15:48:14Z</time>
      </trkpt>
      <trkpt lat="44.49819" lon="6.25583">
        <ele>1269</ele>
        <time>2020-04-04T15:48:20Z</time>
      </trkpt>
      <trkpt lat="44.49819" lon="6.25583">
        <ele>1269</ele>
        <time>2020-04-04T15:48:26Z</time>
      </trkpt>
      <trkpt lat="44.49819" lon="6.25583">
        <ele>1269</ele>
        <time>2020-04-04T15:48:32Z</time>
      </trkpt>
      <trkpt lat="44.49819" lon="6.25583">
        <ele>1269</ele>
        <time>2020-04-04T15:48:37Z</time>
      </trkpt>
      <trkpt lat="44.49819" lon="6.25583">
        <ele>1269</ele>
        <time>2020-04-04T15:48:42Z</time>
      </trkpt>
      <trkpt lat="44.49819" lon="6.25583">
        <ele>1269</ele>
        <time>2020-04-04T15:48:47Z</time>
      </trkpt>
      <trkpt lat="44.49819" lon="6.25583">
        <ele>1269</ele>
        <time>2020-04-04T15:48:53Z</time>
      </trkpt>
      <trkpt lat="44.49819" lon="6.25583">
        <ele>1269</ele>
        <time>2020-04-04T15:48:59Z</time>
      </trkpt>
      <trkpt lat="44.4982" lon="6.25583">
        <ele>1269</ele>
        <time>2020-04-04T15:49:05Z</time>
      </trkpt>
      <trkpt lat="44.49821" lon="6.25583">
        <ele>1268</ele>
        <time>2020-04-04T15:49:11Z</time>
      </trkpt>
      <trkpt lat="44.49821" lon="6.25584">
        <ele>1268</ele>
        <time>2020-04-04T15:49:17Z</time>
      </trkpt>
      <trkpt lat="44.49821" lon="6.25584">
        <ele>1268</ele>
        <time>2020-04-04T15:49:23Z</time>
      </trkpt>
      <trkpt lat="44.49821" lon="6.25584">
        <ele>1268</ele>
        <time>2020-04-04T15:49:28Z</time>
      </trkpt>
      <trkpt lat="44.49821" lon="6.25584">
        <ele>1268</ele>
        <time>2020-04-04T15:49:34Z</time>
      </trkpt>
      <trkpt lat="44.49821" lon="6.25583">
        <ele>1268</ele>
        <time>2020-04-04T15:49:40Z</time>
      </trkpt>
      <trkpt lat="44.49821" lon="6.25583">
        <ele>1268</ele>
        <time>2020-04-04T15:49:46Z</time>
      </trkpt>
      <trkpt lat="44.49821" lon="6.25583">
        <ele>1268</ele>
        <time>2020-04-04T15:49:51Z</time>
      </trkpt>
      <trkpt lat="44.49821" lon="6.25583">
        <ele>1268</ele>
        <time>2020-04-04T15:49:56Z</time>
      </trkpt>
      <trkpt lat="44.49821" lon="6.25583">
        <ele>1268</ele>
        <time>2020-04-04T15:50:02Z</time>
      </trkpt>
      <trkpt lat="44.49822" lon="6.25581">
        <ele>1268</ele>
        <time>2020-04-04T15:50:08Z</time>
      </trkpt>
      <trkpt lat="44.49822" lon="6.2558">
        <ele>1270</ele>
        <time>2020-04-04T15:50:13Z</time>
      </trkpt>
      <trkpt lat="44.49822" lon="6.2558">
        <ele>1270</ele>
        <time>2020-04-04T15:50:19Z</time>
      </trkpt>
      <trkpt lat="44.49822" lon="6.25581">
        <ele>1270</ele>
        <time>2020-04-04T15:50:28Z</time>
      </trkpt>
      <trkpt lat="44.4982" lon="6.25582">
        <ele>1266</ele>
        <time>2020-04-04T15:50:33Z</time>
      </trkpt>
      <trkpt lat="44.4982" lon="6.25583">
        <ele>1274</ele>
        <time>2020-04-04T15:50:38Z</time>
      </trkpt>
      <trkpt lat="44.49818" lon="6.25582">
        <ele>1271</ele>
        <time>2020-04-04T15:50:44Z</time>
      </trkpt>
      <trkpt lat="44.49815" lon="6.25582">
        <ele>1267</ele>
        <time>2020-04-04T15:50:50Z</time>
      </trkpt>
      <trkpt lat="44.4981" lon="6.25577">
        <ele>1261</ele>
        <time>2020-04-04T15:50:56Z</time>
      </trkpt>
      <trkpt lat="44.49805" lon="6.25572">
        <ele>1259</ele>
        <time>2020-04-04T15:51:02Z</time>
      </trkpt>
      <trkpt lat="44.49803" lon="6.25567">
        <ele>1262</ele>
        <time>2020-04-04T15:51:08Z</time>
      </trkpt>
      <trkpt lat="44.49802" lon="6.25564">
        <ele>1263</ele>
        <time>2020-04-04T15:51:13Z</time>
      </trkpt>
      <trkpt lat="44.49796" lon="6.25561">
        <ele>1257</ele>
        <time>2020-04-04T15:51:19Z</time>
      </trkpt>
      <trkpt lat="44.49788" lon="6.25554">
        <ele>1252</ele>
        <time>2020-04-04T15:51:24Z</time>
      </trkpt>
      <trkpt lat="44.49776" lon="6.2554">
        <ele>1251</ele>
        <time>2020-04-04T15:51:30Z</time>
      </trkpt>
      <trkpt lat="44.4976" lon="6.25522">
        <ele>1254</ele>
        <time>2020-04-04T15:51:36Z</time>
      </trkpt>
      <trkpt lat="44.49743" lon="6.25493">
        <ele>1257</ele>
        <time>2020-04-04T15:51:42Z</time>
      </trkpt>
      <trkpt lat="44.4973" lon="6.25477">
        <ele>1257</ele>
        <time>2020-04-04T15:51:47Z</time>
      </trkpt>
      <trkpt lat="44.49721" lon="6.25457">
        <ele>1269</ele>
        <time>2020-04-04T15:51:52Z</time>
      </trkpt>
      <trkpt lat="44.49698" lon="6.25434">
        <ele>1269</ele>
        <time>2020-04-04T15:51:58Z</time>
      </trkpt>
      <trkpt lat="44.49681" lon="6.2541">
        <ele>1272</ele>
        <time>2020-04-04T15:52:03Z</time>
      </trkpt>
      <trkpt lat="44.49664" lon="6.25396">
        <ele>1272</ele>
        <time>2020-04-04T15:52:08Z</time>
      </trkpt>
      <trkpt lat="44.49651" lon="6.25384">
        <ele>1275</ele>
        <time>2020-04-04T15:52:14Z</time>
      </trkpt>
      <trkpt lat="44.49643" lon="6.25371">
        <ele>1278</ele>
        <time>2020-04-04T15:52:20Z</time>
      </trkpt>
      <trkpt lat="44.49631" lon="6.25366">
        <ele>1281</ele>
        <time>2020-04-04T15:52:25Z</time>
      </trkpt>
      <trkpt lat="44.49618" lon="6.25359">
        <ele>1286</ele>
        <time>2020-04-04T15:52:30Z</time>
      </trkpt>
      <trkpt lat="44.49599" lon="6.25359">
        <ele>1286</ele>
        <time>2020-04-04T15:52:36Z</time>
      </trkpt>
      <trkpt lat="44.49582" lon="6.25368">
        <ele>1283</ele>
        <time>2020-04-04T15:52:42Z</time>
      </trkpt>
      <trkpt lat="44.49575" lon="6.25363">
        <ele>1289</ele>
        <time>2020-04-04T15:52:47Z</time>
      </trkpt>
      <trkpt lat="44.49578" lon="6.25348">
        <ele>1294</ele>
        <time>2020-04-04T15:52:53Z</time>
      </trkpt>
      <trkpt lat="44.49583" lon="6.25334">
        <ele>1306</ele>
        <time>2020-04-04T15:52:58Z</time>
      </trkpt>
      <trkpt lat="44.49583" lon="6.25317">
        <ele>1301</ele>
        <time>2020-04-04T15:53:04Z</time>
      </trkpt>
      <trkpt lat="44.49579" lon="6.253">
        <ele>1302</ele>
        <time>2020-04-04T15:53:09Z</time>
      </trkpt>
      <trkpt lat="44.49574" lon="6.25283">
        <ele>1315</ele>
        <time>2020-04-04T15:53:15Z</time>
      </trkpt>
      <trkpt lat="44.49574" lon="6.25262">
        <ele>1321</ele>
        <time>2020-04-04T15:53:21Z</time>
      </trkpt>
      <trkpt lat="44.49571" lon="6.25244">
        <ele>1321</ele>
        <time>2020-04-04T15:53:26Z</time>
      </trkpt>
      <trkpt lat="44.49567" lon="6.25228">
        <ele>1320</ele>
        <time>2020-04-04T15:53:31Z</time>
      </trkpt>
      <trkpt lat="44.49565" lon="6.25213">
        <ele>1322</ele>
        <time>2020-04-04T15:53:36Z</time>
      </trkpt>
      <trkpt lat="44.49553" lon="6.25191">
        <ele>1320</ele>
        <time>2020-04-04T15:53:42Z</time>
      </trkpt>
      <trkpt lat="44.4954" lon="6.25168">
        <ele>1316</ele>
        <time>2020-04-04T15:53:48Z</time>
      </trkpt>
      <trkpt lat="44.49531" lon="6.25152">
        <ele>1319</ele>
        <time>2020-04-04T15:53:53Z</time>
      </trkpt>
      <trkpt lat="44.49509" lon="6.25147">
        <ele>1311</ele>
        <time>2020-04-04T15:53:59Z</time>
      </trkpt>
      <trkpt lat="44.49492" lon="6.25141">
        <ele>1307</ele>
        <time>2020-04-04T15:54:04Z</time>
      </trkpt>
      <trkpt lat="44.49478" lon="6.25143">
        <ele>1308</ele>
        <time>2020-04-04T15:54:09Z</time>
      </trkpt>
      <trkpt lat="44.49462" lon="6.25138">
        <ele>1309</ele>
        <time>2020-04-04T15:54:15Z</time>
      </trkpt>
      <trkpt lat="44.49437" lon="6.25137">
        <ele>1307</ele>
        <time>2020-04-04T15:54:21Z</time>
      </trkpt>
      <trkpt lat="44.49409" lon="6.25125">
        <ele>1303</ele>
        <time>2020-04-04T15:54:26Z</time>
      </trkpt>
      <trkpt lat="44.49377" lon="6.25139">
        <ele>1299</ele>
        <time>2020-04-04T15:54:32Z</time>
      </trkpt>
      <trkpt lat="44.49343" lon="6.25196">
        <ele>1289</ele>
        <time>2020-04-04T15:54:38Z</time>
      </trkpt>
      <trkpt lat="44.49276" lon="6.2529">
        <ele>1277</ele>
        <time>2020-04-04T15:54:47Z</time>
      </trkpt>
      <trkpt lat="44.49245" lon="6.25354">
        <ele>1277</ele>
        <time>2020-04-04T15:54:52Z</time>
      </trkpt>
      <trkpt lat="44.49217" lon="6.25375">
        <ele>1280</ele>
        <time>2020-04-04T15:54:57Z</time>
      </trkpt>
      <trkpt lat="44.49197" lon="6.25392">
        <ele>1281</ele>
        <time>2020-04-04T15:55:02Z</time>
      </trkpt>
      <trkpt lat="44.49178" lon="6.25408">
        <ele>1281</ele>
        <time>2020-04-04T15:55:08Z</time>
      </trkpt>
      <trkpt lat="44.49153" lon="6.25416">
        <ele>1284</ele>
        <time>2020-04-04T15:55:14Z</time>
      </trkpt>
      <trkpt lat="44.4913" lon="6.25413">
        <ele>1282</ele>
        <time>2020-04-04T15:55:20Z</time>
      </trkpt>
      <trkpt lat="44.49112" lon="6.25397">
        <ele>1282</ele>
        <time>2020-04-04T15:55:25Z</time>
      </trkpt>
      <trkpt lat="44.49099" lon="6.25391">
        <ele>1283</ele>
        <time>2020-04-04T15:55:30Z</time>
      </trkpt>
      <trkpt lat="44.49093" lon="6.25391">
        <ele>1280</ele>
        <time>2020-04-04T15:55:36Z</time>
      </trkpt>
      <trkpt lat="44.49085" lon="6.25381">
        <ele>1279</ele>
        <time>2020-04-04T15:55:42Z</time>
      </trkpt>
      <trkpt lat="44.49084" lon="6.25369">
        <ele>1280</ele>
        <time>2020-04-04T15:55:47Z</time>
      </trkpt>
      <trkpt lat="44.49086" lon="6.25379">
        <ele>1283</ele>
        <time>2020-04-04T15:55:52Z</time>
      </trkpt>
      <trkpt lat="44.49085" lon="6.25386">
        <ele>1282</ele>
        <time>2020-04-04T15:55:57Z</time>
      </trkpt>
      <trkpt lat="44.4908" lon="6.2538">
        <ele>1279</ele>
        <time>2020-04-04T15:56:03Z</time>
      </trkpt>
      <trkpt lat="44.4908" lon="6.25344">
        <ele>1276</ele>
        <time>2020-04-04T15:56:09Z</time>
      </trkpt>
      <trkpt lat="44.49063" lon="6.25298">
        <ele>1274</ele>
        <time>2020-04-04T15:56:14Z</time>
      </trkpt>
      <trkpt lat="44.49049" lon="6.25251">
        <ele>1275</ele>
        <time>2020-04-04T15:56:20Z</time>
      </trkpt>
      <trkpt lat="44.49055" lon="6.25222">
        <ele>1276</ele>
        <time>2020-04-04T15:56:26Z</time>
      </trkpt>
      <trkpt lat="44.49072" lon="6.25189">
        <ele>1275</ele>
        <time>2020-04-04T15:56:31Z</time>
      </trkpt>
      <trkpt lat="44.49086" lon="6.25153">
        <ele>1273</ele>
        <time>2020-04-04T15:56:36Z</time>
      </trkpt>
      <trkpt lat="44.49106" lon="6.25105">
        <ele>1274</ele>
        <time>2020-04-04T15:56:42Z</time>
      </trkpt>
      <trkpt lat="44.49119" lon="6.25067">
        <ele>1272</ele>
        <time>2020-04-04T15:56:47Z</time>
      </trkpt>
      <trkpt lat="44.49124" lon="6.25027">
        <ele>1276</ele>
        <time>2020-04-04T15:56:53Z</time>
      </trkpt>
      <trkpt lat="44.4912" lon="6.24989">
        <ele>1278</ele>
        <time>2020-04-04T15:56:58Z</time>
      </trkpt>
      <trkpt lat="44.49108" lon="6.2495">
        <ele>1272</ele>
        <time>2020-04-04T15:57:04Z</time>
      </trkpt>
      <trkpt lat="44.49107" lon="6.24907">
        <ele>1275</ele>
        <time>2020-04-04T15:57:09Z</time>
      </trkpt>
      <trkpt lat="44.49099" lon="6.24874">
        <ele>1273</ele>
        <time>2020-04-04T15:57:15Z</time>
      </trkpt>
      <trkpt lat="44.49096" lon="6.2483">
        <ele>1278</ele>
        <time>2020-04-04T15:57:20Z</time>
      </trkpt>
      <trkpt lat="44.49078" lon="6.24791">
        <ele>1273</ele>
        <time>2020-04-04T15:57:25Z</time>
      </trkpt>
      <trkpt lat="44.49058" lon="6.24768">
        <ele>1274</ele>
        <time>2020-04-04T15:57:30Z</time>
      </trkpt>
      <trkpt lat="44.49032" lon="6.24757">
        <ele>1276</ele>
        <time>2020-04-04T15:57:36Z</time>
      </trkpt>
      <trkpt lat="44.49006" lon="6.2474">
        <ele>1275</ele>
        <time>2020-04-04T15:57:41Z</time>
      </trkpt>
      <trkpt lat="44.48976" lon="6.24703">
        <ele>1273</ele>
        <time>2020-04-04T15:57:47Z</time>
      </trkpt>
      <trkpt lat="44.4893" lon="6.24674">
        <ele>1268</ele>
        <time>2020-04-04T15:57:53Z</time>
      </trkpt>
      <trkpt lat="44.48889" lon="6.24625">
        <ele>1265</ele>
        <time>2020-04-04T15:57:59Z</time>
      </trkpt>
      <trkpt lat="44.48854" lon="6.24581">
        <ele>1259</ele>
        <time>2020-04-04T15:58:04Z</time>
      </trkpt>
      <trkpt lat="44.48814" lon="6.24538">
        <ele>1257</ele>
        <time>2020-04-04T15:58:10Z</time>
      </trkpt>
      <trkpt lat="44.48788" lon="6.245">
        <ele>1253</ele>
        <time>2020-04-04T15:58:15Z</time>
      </trkpt>
      <trkpt lat="44.48755" lon="6.24459">
        <ele>1252</ele>
        <time>2020-04-04T15:58:20Z</time>
      </trkpt>
      <trkpt lat="44.48709" lon="6.244">
        <ele>1243</ele>
        <time>2020-04-04T15:58:26Z</time>
      </trkpt>
      <trkpt lat="44.48665" lon="6.24354">
        <ele>1237</ele>
        <time>2020-04-04T15:58:31Z</time>
      </trkpt>
      <trkpt lat="44.48622" lon="6.24318">
        <ele>1236</ele>
        <time>2020-04-04T15:58:36Z</time>
      </trkpt>
      <trkpt lat="44.48586" lon="6.24335">
        <ele>1233</ele>
        <time>2020-04-04T15:58:42Z</time>
      </trkpt>
      <trkpt lat="44.48559" lon="6.24339">
        <ele>1233</ele>
        <time>2020-04-04T15:58:48Z</time>
      </trkpt>
      <trkpt lat="44.4853" lon="6.24348">
        <ele>1230</ele>
        <time>2020-04-04T15:58:54Z</time>
      </trkpt>
      <trkpt lat="44.48501" lon="6.24367">
        <ele>1230</ele>
        <time>2020-04-04T15:59:00Z</time>
      </trkpt>
      <trkpt lat="44.48481" lon="6.24385">
        <ele>1222</ele>
        <time>2020-04-04T15:59:06Z</time>
      </trkpt>
      <trkpt lat="44.48453" lon="6.24348">
        <ele>1229</ele>
        <time>2020-04-04T15:59:12Z</time>
      </trkpt>
      <trkpt lat="44.48456" lon="6.24309">
        <ele>1236</ele>
        <time>2020-04-04T15:59:17Z</time>
      </trkpt>
      <trkpt lat="44.48435" lon="6.24272">
        <ele>1233</ele>
        <time>2020-04-04T15:59:22Z</time>
      </trkpt>
      <trkpt lat="44.48405" lon="6.24247">
        <ele>1231</ele>
        <time>2020-04-04T15:59:27Z</time>
      </trkpt>
      <trkpt lat="44.48362" lon="6.24225">
        <ele>1229</ele>
        <time>2020-04-04T15:59:33Z</time>
      </trkpt>
      <trkpt lat="44.48342" lon="6.24254">
        <ele>1226</ele>
        <time>2020-04-04T15:59:38Z</time>
      </trkpt>
      <trkpt lat="44.48344" lon="6.24297">
        <ele>1222</ele>
        <time>2020-04-04T15:59:43Z</time>
      </trkpt>
      <trkpt lat="44.48337" lon="6.24309">
        <ele>1220</ele>
        <time>2020-04-04T15:59:49Z</time>
      </trkpt>
      <trkpt lat="44.48331" lon="6.24281">
        <ele>1219</ele>
        <time>2020-04-04T15:59:55Z</time>
      </trkpt>
      <trkpt lat="44.483" lon="6.24258">
        <ele>1213</ele>
        <time>2020-04-04T16:00:00Z</time>
      </trkpt>
      <trkpt lat="44.48265" lon="6.24234">
        <ele>1209</ele>
        <time>2020-04-04T16:00:05Z</time>
      </trkpt>
      <trkpt lat="44.48253" lon="6.24205">
        <ele>1207</ele>
        <time>2020-04-04T16:00:11Z</time>
      </trkpt>
      <trkpt lat="44.48261" lon="6.24206">
        <ele>1205</ele>
        <time>2020-04-04T16:00:18Z</time>
      </trkpt>
      <trkpt lat="44.48262" lon="6.24229">
        <ele>1205</ele>
        <time>2020-04-04T16:00:23Z</time>
      </trkpt>
      <trkpt lat="44.48245" lon="6.24219">
        <ele>1202</ele>
        <time>2020-04-04T16:00:29Z</time>
      </trkpt>
      <trkpt lat="44.48228" lon="6.24201">
        <ele>1197</ele>
        <time>2020-04-04T16:00:34Z</time>
      </trkpt>
      <trkpt lat="44.48215" lon="6.2418">
        <ele>1193</ele>
        <time>2020-04-04T16:00:40Z</time>
      </trkpt>
      <trkpt lat="44.48204" lon="6.242">
        <ele>1189</ele>
        <time>2020-04-04T16:00:46Z</time>
      </trkpt>
      <trkpt lat="44.48202" lon="6.24222">
        <ele>1184</ele>
        <time>2020-04-04T16:00:51Z</time>
      </trkpt>
      <trkpt lat="44.48209" lon="6.24267">
        <ele>1181</ele>
        <time>2020-04-04T16:00:56Z</time>
      </trkpt>
      <trkpt lat="44.48222" lon="6.24314">
        <ele>1177</ele>
        <time>2020-04-04T16:01:02Z</time>
      </trkpt>
      <trkpt lat="44.48216" lon="6.24344">
        <ele>1175</ele>
        <time>2020-04-04T16:01:08Z</time>
      </trkpt>
      <trkpt lat="44.48195" lon="6.24347">
        <ele>1169</ele>
        <time>2020-04-04T16:01:13Z</time>
      </trkpt>
      <trkpt lat="44.4817" lon="6.24348">
        <ele>1169</ele>
        <time>2020-04-04T16:01:18Z</time>
      </trkpt>
      <trkpt lat="44.48144" lon="6.24343">
        <ele>1165</ele>
        <time>2020-04-04T16:01:24Z</time>
      </trkpt>
      <trkpt lat="44.48128" lon="6.24348">
        <ele>1157</ele>
        <time>2020-04-04T16:01:29Z</time>
      </trkpt>
      <trkpt lat="44.48118" lon="6.24341">
        <ele>1153</ele>
        <time>2020-04-04T16:01:35Z</time>
      </trkpt>
      <trkpt lat="44.48103" lon="6.24354">
        <ele>1151</ele>
        <time>2020-04-04T16:01:41Z</time>
      </trkpt>
      <trkpt lat="44.48079" lon="6.24384">
        <ele>1150</ele>
        <time>2020-04-04T16:01:46Z</time>
      </trkpt>
      <trkpt lat="44.4805" lon="6.24398">
        <ele>1143</ele>
        <time>2020-04-04T16:01:51Z</time>
      </trkpt>
      <trkpt lat="44.47999" lon="6.24403">
        <ele>1135</ele>
        <time>2020-04-04T16:01:57Z</time>
      </trkpt>
      <trkpt lat="44.47973" lon="6.24413">
        <ele>1130</ele>
        <time>2020-04-04T16:02:02Z</time>
      </trkpt>
      <trkpt lat="44.47941" lon="6.24435">
        <ele>1128</ele>
        <time>2020-04-04T16:02:07Z</time>
      </trkpt>
      <trkpt lat="44.47893" lon="6.24463">
        <ele>1123</ele>
        <time>2020-04-04T16:02:13Z</time>
      </trkpt>
      <trkpt lat="44.47854" lon="6.24467">
        <ele>1126</ele>
        <time>2020-04-04T16:02:19Z</time>
      </trkpt>
      <trkpt lat="44.47844" lon="6.24453">
        <ele>1127</ele>
        <time>2020-04-04T16:02:24Z</time>
      </trkpt>
      <trkpt lat="44.47834" lon="6.24433">
        <ele>1123</ele>
        <time>2020-04-04T16:02:30Z</time>
      </trkpt>
      <trkpt lat="44.47825" lon="6.24408">
        <ele>1119</ele>
        <time>2020-04-04T16:02:35Z</time>
      </trkpt>
      <trkpt lat="44.47821" lon="6.24391">
        <ele>1122</ele>
        <time>2020-04-04T16:02:41Z</time>
      </trkpt>
      <trkpt lat="44.47815" lon="6.2437">
        <ele>1124</ele>
        <time>2020-04-04T16:02:46Z</time>
      </trkpt>
      <trkpt lat="44.4781" lon="6.2435">
        <ele>1126</ele>
        <time>2020-04-04T16:02:51Z</time>
      </trkpt>
      <trkpt lat="44.4779" lon="6.24331">
        <ele>1124</ele>
        <time>2020-04-04T16:02:57Z</time>
      </trkpt>
      <trkpt lat="44.47767" lon="6.24312">
        <ele>1123</ele>
        <time>2020-04-04T16:03:03Z</time>
      </trkpt>
      <trkpt lat="44.47748" lon="6.24285">
        <ele>1126</ele>
        <time>2020-04-04T16:03:09Z</time>
      </trkpt>
      <trkpt lat="44.47741" lon="6.24248">
        <ele>1128</ele>
        <time>2020-04-04T16:03:15Z</time>
      </trkpt>
      <trkpt lat="44.47748" lon="6.24216">
        <ele>1128</ele>
        <time>2020-04-04T16:03:20Z</time>
      </trkpt>
      <trkpt lat="44.47769" lon="6.24189">
        <ele>1128</ele>
        <time>2020-04-04T16:03:25Z</time>
      </trkpt>
      <trkpt lat="44.478" lon="6.24175">
        <ele>1127</ele>
        <time>2020-04-04T16:03:31Z</time>
      </trkpt>
      <trkpt lat="44.47823" lon="6.2415">
        <ele>1124</ele>
        <time>2020-04-04T16:03:36Z</time>
      </trkpt>
      <trkpt lat="44.47835" lon="6.2412">
        <ele>1125</ele>
        <time>2020-04-04T16:03:42Z</time>
      </trkpt>
      <trkpt lat="44.47843" lon="6.24082">
        <ele>1125</ele>
        <time>2020-04-04T16:03:48Z</time>
      </trkpt>
      <trkpt lat="44.47838" lon="6.24029">
        <ele>1127</ele>
        <time>2020-04-04T16:03:54Z</time>
      </trkpt>
      <trkpt lat="44.47838" lon="6.23985">
        <ele>1131</ele>
        <time>2020-04-04T16:04:00Z</time>
      </trkpt>
      <trkpt lat="44.47846" lon="6.23948">
        <ele>1133</ele>
        <time>2020-04-04T16:04:06Z</time>
      </trkpt>
      <trkpt lat="44.47842" lon="6.23915">
        <ele>1133</ele>
        <time>2020-04-04T16:04:12Z</time>
      </trkpt>
      <trkpt lat="44.47844" lon="6.23885">
        <ele>1131</ele>
        <time>2020-04-04T16:04:17Z</time>
      </trkpt>
      <trkpt lat="44.47852" lon="6.23856">
        <ele>1126</ele>
        <time>2020-04-04T16:04:22Z</time>
      </trkpt>
      <trkpt lat="44.47862" lon="6.23811">
        <ele>1126</ele>
        <time>2020-04-04T16:04:27Z</time>
      </trkpt>
      <trkpt lat="44.47831" lon="6.23761">
        <ele>1118</ele>
        <time>2020-04-04T16:04:33Z</time>
      </trkpt>
      <trkpt lat="44.47823" lon="6.23727">
        <ele>1111</ele>
        <time>2020-04-04T16:04:39Z</time>
      </trkpt>
      <trkpt lat="44.47825" lon="6.2371">
        <ele>1109</ele>
        <time>2020-04-04T16:04:44Z</time>
      </trkpt>
      <trkpt lat="44.47831" lon="6.23684">
        <ele>1102</ele>
        <time>2020-04-04T16:04:49Z</time>
      </trkpt>
      <trkpt lat="44.47847" lon="6.23655">
        <ele>1105</ele>
        <time>2020-04-04T16:04:54Z</time>
      </trkpt>
      <trkpt lat="44.47876" lon="6.23608">
        <ele>1096</ele>
        <time>2020-04-04T16:05:00Z</time>
      </trkpt>
      <trkpt lat="44.47909" lon="6.23582">
        <ele>1095</ele>
        <time>2020-04-04T16:05:05Z</time>
      </trkpt>
      <trkpt lat="44.47936" lon="6.23574">
        <ele>1087</ele>
        <time>2020-04-04T16:05:12Z</time>
      </trkpt>
      <trkpt lat="44.47959" lon="6.23568">
        <ele>1080</ele>
        <time>2020-04-04T16:05:17Z</time>
      </trkpt>
      <trkpt lat="44.47984" lon="6.23564">
        <ele>1080</ele>
        <time>2020-04-04T16:05:23Z</time>
      </trkpt>
      <trkpt lat="44.48022" lon="6.23551">
        <ele>1076</ele>
        <time>2020-04-04T16:05:29Z</time>
      </trkpt>
      <trkpt lat="44.48047" lon="6.2354">
        <ele>1078</ele>
        <time>2020-04-04T16:05:35Z</time>
      </trkpt>
      <trkpt lat="44.48027" lon="6.23523">
        <ele>1069</ele>
        <time>2020-04-04T16:05:40Z</time>
      </trkpt>
      <trkpt lat="44.4798" lon="6.23485">
        <ele>1063</ele>
        <time>2020-04-04T16:05:46Z</time>
      </trkpt>
      <trkpt lat="44.4794" lon="6.23445">
        <ele>1054</ele>
        <time>2020-04-04T16:05:55Z</time>
      </trkpt>
      <trkpt lat="44.47916" lon="6.23432">
        <ele>1047</ele>
        <time>2020-04-04T16:06:00Z</time>
      </trkpt>
      <trkpt lat="44.47878" lon="6.23437">
        <ele>1044</ele>
        <time>2020-04-04T16:06:06Z</time>
      </trkpt>
      <trkpt lat="44.47848" lon="6.23441">
        <ele>1041</ele>
        <time>2020-04-04T16:06:12Z</time>
      </trkpt>
      <trkpt lat="44.47805" lon="6.23447">
        <ele>1035</ele>
        <time>2020-04-04T16:06:17Z</time>
      </trkpt>
      <trkpt lat="44.47772" lon="6.2347">
        <ele>1031</ele>
        <time>2020-04-04T16:06:23Z</time>
      </trkpt>
      <trkpt lat="44.47738" lon="6.23471">
        <ele>1028</ele>
        <time>2020-04-04T16:06:28Z</time>
      </trkpt>
      <trkpt lat="44.47691" lon="6.23492">
        <ele>1023</ele>
        <time>2020-04-04T16:06:34Z</time>
      </trkpt>
      <trkpt lat="44.47672" lon="6.23513">
        <ele>1016</ele>
        <time>2020-04-04T16:06:40Z</time>
      </trkpt>
      <trkpt lat="44.47659" lon="6.23491">
        <ele>1016</ele>
        <time>2020-04-04T16:06:45Z</time>
      </trkpt>
      <trkpt lat="44.47647" lon="6.2346">
        <ele>1014</ele>
        <time>2020-04-04T16:06:50Z</time>
      </trkpt>
      <trkpt lat="44.47605" lon="6.23447">
        <ele>1004</ele>
        <time>2020-04-04T16:06:56Z</time>
      </trkpt>
      <trkpt lat="44.47576" lon="6.23441">
        <ele>1003</ele>
        <time>2020-04-04T16:07:01Z</time>
      </trkpt>
      <trkpt lat="44.4754" lon="6.2343">
        <ele>1004</ele>
        <time>2020-04-04T16:07:06Z</time>
      </trkpt>
      <trkpt lat="44.47511" lon="6.23443">
        <ele>1003</ele>
        <time>2020-04-04T16:07:12Z</time>
      </trkpt>
      <trkpt lat="44.47484" lon="6.23437">
        <ele>1002</ele>
        <time>2020-04-04T16:07:17Z</time>
      </trkpt>
      <trkpt lat="44.47456" lon="6.23409">
        <ele>995</ele>
        <time>2020-04-04T16:07:23Z</time>
      </trkpt>
      <trkpt lat="44.4744" lon="6.23411">
        <ele>992</ele>
        <time>2020-04-04T16:07:28Z</time>
      </trkpt>
      <trkpt lat="44.47416" lon="6.23408">
        <ele>989</ele>
        <time>2020-04-04T16:07:34Z</time>
      </trkpt>
      <trkpt lat="44.47402" lon="6.23415">
        <ele>987</ele>
        <time>2020-04-04T16:07:40Z</time>
      </trkpt>
      <trkpt lat="44.47385" lon="6.2342">
        <ele>988</ele>
        <time>2020-04-04T16:07:45Z</time>
      </trkpt>
      <trkpt lat="44.47367" lon="6.23386">
        <ele>982</ele>
        <time>2020-04-04T16:07:51Z</time>
      </trkpt>
      <trkpt lat="44.4734" lon="6.23359">
        <ele>979</ele>
        <time>2020-04-04T16:07:57Z</time>
      </trkpt>
      <trkpt lat="44.47343" lon="6.23351">
        <ele>974</ele>
        <time>2020-04-04T16:08:03Z</time>
      </trkpt>
      <trkpt lat="44.47365" lon="6.23377">
        <ele>969</ele>
        <time>2020-04-04T16:08:09Z</time>
      </trkpt>
      <trkpt lat="44.47378" lon="6.23361">
        <ele>970</ele>
        <time>2020-04-04T16:08:14Z</time>
      </trkpt>
      <trkpt lat="44.47396" lon="6.23334">
        <ele>970</ele>
        <time>2020-04-04T16:08:20Z</time>
      </trkpt>
      <trkpt lat="44.47391" lon="6.23313">
        <ele>963</ele>
        <time>2020-04-04T16:08:25Z</time>
      </trkpt>
      <trkpt lat="44.47366" lon="6.23322">
        <ele>958</ele>
        <time>2020-04-04T16:08:31Z</time>
      </trkpt>
      <trkpt lat="44.47352" lon="6.23302">
        <ele>953</ele>
        <time>2020-04-04T16:08:36Z</time>
      </trkpt>
      <trkpt lat="44.47332" lon="6.23278">
        <ele>939</ele>
        <time>2020-04-04T16:08:42Z</time>
      </trkpt>
      <trkpt lat="44.47317" lon="6.23265">
        <ele>933</ele>
        <time>2020-04-04T16:08:48Z</time>
      </trkpt>
      <trkpt lat="44.473" lon="6.23257">
        <ele>927</ele>
        <time>2020-04-04T16:08:54Z</time>
      </trkpt>
      <trkpt lat="44.4729" lon="6.23251">
        <ele>925</ele>
        <time>2020-04-04T16:08:59Z</time>
      </trkpt>
      <trkpt lat="44.4728" lon="6.23247">
        <ele>924</ele>
        <time>2020-04-04T16:09:04Z</time>
      </trkpt>
      <trkpt lat="44.47272" lon="6.23236">
        <ele>923</ele>
        <time>2020-04-04T16:09:09Z</time>
      </trkpt>
      <trkpt lat="44.47273" lon="6.23203">
        <ele>922</ele>
        <time>2020-04-04T16:09:15Z</time>
      </trkpt>
      <trkpt lat="44.47264" lon="6.2318">
        <ele>915</ele>
        <time>2020-04-04T16:09:20Z</time>
      </trkpt>
      <trkpt lat="44.4724" lon="6.23198">
        <ele>911</ele>
        <time>2020-04-04T16:09:26Z</time>
      </trkpt>
      <trkpt lat="44.47227" lon="6.23211">
        <ele>910</ele>
        <time>2020-04-04T16:09:31Z</time>
      </trkpt>
      <trkpt lat="44.47215" lon="6.23229">
        <ele>911</ele>
        <time>2020-04-04T16:09:36Z</time>
      </trkpt>
      <trkpt lat="44.47206" lon="6.23235">
        <ele>913</ele>
        <time>2020-04-04T16:09:42Z</time>
      </trkpt>
      <trkpt lat="44.47198" lon="6.23248">
        <ele>901</ele>
        <time>2020-04-04T16:09:48Z</time>
      </trkpt>
      <trkpt lat="44.47191" lon="6.23268">
        <ele>896</ele>
        <time>2020-04-04T16:09:53Z</time>
      </trkpt>
      <trkpt lat="44.47179" lon="6.23278">
        <ele>896</ele>
        <time>2020-04-04T16:09:58Z</time>
      </trkpt>
      <trkpt lat="44.47164" lon="6.23291">
        <ele>893</ele>
        <time>2020-04-04T16:10:03Z</time>
      </trkpt>
      <trkpt lat="44.47149" lon="6.233">
        <ele>889</ele>
        <time>2020-04-04T16:10:08Z</time>
      </trkpt>
      <trkpt lat="44.47132" lon="6.23311">
        <ele>884</ele>
        <time>2020-04-04T16:10:15Z</time>
      </trkpt>
      <trkpt lat="44.47117" lon="6.23328">
        <ele>879</ele>
        <time>2020-04-04T16:10:20Z</time>
      </trkpt>
      <trkpt lat="44.4711" lon="6.23353">
        <ele>874</ele>
        <time>2020-04-04T16:10:25Z</time>
      </trkpt>
      <trkpt lat="44.47113" lon="6.23383">
        <ele>870</ele>
        <time>2020-04-04T16:10:31Z</time>
      </trkpt>
      <trkpt lat="44.47096" lon="6.23396">
        <ele>864</ele>
        <time>2020-04-04T16:10:37Z</time>
      </trkpt>
      <trkpt lat="44.47085" lon="6.23406">
        <ele>861</ele>
        <time>2020-04-04T16:10:43Z</time>
      </trkpt>
      <trkpt lat="44.47085" lon="6.23406">
        <ele>861</ele>
        <time>2020-04-04T16:10:49Z</time>
      </trkpt>
      <trkpt lat="44.47077" lon="6.2341">
        <ele>858</ele>
        <time>2020-04-04T16:10:54Z</time>
      </trkpt>
      <trkpt lat="44.47074" lon="6.23409">
        <ele>857</ele>
        <time>2020-04-04T16:10:59Z</time>
      </trkpt>
      <trkpt lat="44.47069" lon="6.23411">
        <ele>852</ele>
        <time>2020-04-04T16:11:04Z</time>
      </trkpt>
      <trkpt lat="44.47058" lon="6.23418">
        <ele>852</ele>
        <time>2020-04-04T16:11:10Z</time>
      </trkpt>
      <trkpt lat="44.4705" lon="6.23432">
        <ele>851</ele>
        <time>2020-04-04T16:11:15Z</time>
      </trkpt>
      <trkpt lat="44.47049" lon="6.23435">
        <ele>853</ele>
        <time>2020-04-04T16:11:21Z</time>
      </trkpt>
      <trkpt lat="44.47045" lon="6.23435">
        <ele>857</ele>
        <time>2020-04-04T16:11:26Z</time>
      </trkpt>
      <trkpt lat="44.47039" lon="6.23456">
        <ele>846</ele>
        <time>2020-04-04T16:11:32Z</time>
      </trkpt>
      <trkpt lat="44.47025" lon="6.23468">
        <ele>844</ele>
        <time>2020-04-04T16:11:38Z</time>
      </trkpt>
      <trkpt lat="44.47014" lon="6.23478">
        <ele>840</ele>
        <time>2020-04-04T16:11:44Z</time>
      </trkpt>
      <trkpt lat="44.47012" lon="6.23467">
        <ele>837</ele>
        <time>2020-04-04T16:11:51Z</time>
      </trkpt>
      <trkpt lat="44.4702" lon="6.23452">
        <ele>835</ele>
        <time>2020-04-04T16:11:56Z</time>
      </trkpt>
      <trkpt lat="44.47013" lon="6.23464">
        <ele>829</ele>
        <time>2020-04-04T16:12:01Z</time>
      </trkpt>
      <trkpt lat="44.47001" lon="6.23482">
        <ele>822</ele>
        <time>2020-04-04T16:12:07Z</time>
      </trkpt>
      <trkpt lat="44.46994" lon="6.23509">
        <ele>818</ele>
        <time>2020-04-04T16:12:12Z</time>
      </trkpt>
      <trkpt lat="44.4698" lon="6.23511">
        <ele>817</ele>
        <time>2020-04-04T16:12:17Z</time>
      </trkpt>
      <trkpt lat="44.46968" lon="6.23527">
        <ele>813</ele>
        <time>2020-04-04T16:12:23Z</time>
      </trkpt>
      <trkpt lat="44.46962" lon="6.23549">
        <ele>809</ele>
        <time>2020-04-04T16:12:28Z</time>
      </trkpt>
      <trkpt lat="44.46947" lon="6.2355">
        <ele>804</ele>
        <time>2020-04-04T16:12:34Z</time>
      </trkpt>
      <trkpt lat="44.46929" lon="6.23549">
        <ele>803</ele>
        <time>2020-04-04T16:12:40Z</time>
      </trkpt>
      <trkpt lat="44.46907" lon="6.23565">
        <ele>799</ele>
        <time>2020-04-04T16:12:46Z</time>
      </trkpt>
      <trkpt lat="44.46893" lon="6.2357">
        <ele>794</ele>
        <time>2020-04-04T16:12:52Z</time>
      </trkpt>
      <trkpt lat="44.46901" lon="6.23553">
        <ele>789</ele>
        <time>2020-04-04T16:12:58Z</time>
      </trkpt>
      <trkpt lat="44.46884" lon="6.23554">
        <ele>786</ele>
        <time>2020-04-04T16:13:04Z</time>
      </trkpt>
      <trkpt lat="44.46857" lon="6.23592">
        <ele>782</ele>
        <time>2020-04-04T16:13:10Z</time>
      </trkpt>
      <trkpt lat="44.46834" lon="6.23619">
        <ele>780</ele>
        <time>2020-04-04T16:13:15Z</time>
      </trkpt>
      <trkpt lat="44.46805" lon="6.23641">
        <ele>778</ele>
        <time>2020-04-04T16:13:21Z</time>
      </trkpt>
      <trkpt lat="44.46786" lon="6.23661">
        <ele>771</ele>
        <time>2020-04-04T16:13:26Z</time>
      </trkpt>
      <trkpt lat="44.46766" lon="6.23697">
        <ele>768</ele>
        <time>2020-04-04T16:13:31Z</time>
      </trkpt>
      <trkpt lat="44.46746" lon="6.23741">
        <ele>764</ele>
        <time>2020-04-04T16:13:38Z</time>
      </trkpt>
      <trkpt lat="44.46737" lon="6.23778">
        <ele>764</ele>
        <time>2020-04-04T16:13:43Z</time>
      </trkpt>
      <trkpt lat="44.46736" lon="6.23822">
        <ele>761</ele>
        <time>2020-04-04T16:13:49Z</time>
      </trkpt>
      <trkpt lat="44.46723" lon="6.23851">
        <ele>755</ele>
        <time>2020-04-04T16:13:56Z</time>
      </trkpt>
      <trkpt lat="44.4671" lon="6.23891">
        <ele>748</ele>
        <time>2020-04-04T16:14:01Z</time>
      </trkpt>
      <trkpt lat="44.46689" lon="6.23908">
        <ele>747</ele>
        <time>2020-04-04T16:14:06Z</time>
      </trkpt>
      <trkpt lat="44.46685" lon="6.23948">
        <ele>746</ele>
        <time>2020-04-04T16:14:12Z</time>
      </trkpt>
      <trkpt lat="44.46674" lon="6.23998">
        <ele>744</ele>
        <time>2020-04-04T16:14:18Z</time>
      </trkpt>
      <trkpt lat="44.46686" lon="6.24034">
        <ele>737</ele>
        <time>2020-04-04T16:14:23Z</time>
      </trkpt>
      <trkpt lat="44.46688" lon="6.24073">
        <ele>735</ele>
        <time>2020-04-04T16:14:28Z</time>
      </trkpt>
      <trkpt lat="44.46679" lon="6.24068">
        <ele>734</ele>
        <time>2020-04-04T16:14:34Z</time>
      </trkpt>
      <trkpt lat="44.4667" lon="6.24043">
        <ele>733</ele>
        <time>2020-04-04T16:14:39Z</time>
      </trkpt>
      <trkpt lat="44.46664" lon="6.24071">
        <ele>730</ele>
        <time>2020-04-04T16:14:44Z</time>
      </trkpt>
      <trkpt lat="44.46664" lon="6.24119">
        <ele>727</ele>
        <time>2020-04-04T16:14:49Z</time>
      </trkpt>
      <trkpt lat="44.46656" lon="6.24178">
        <ele>722</ele>
        <time>2020-04-04T16:14:55Z</time>
      </trkpt>
      <trkpt lat="44.46646" lon="6.2418">
        <ele>719</ele>
        <time>2020-04-04T16:15:00Z</time>
      </trkpt>
      <trkpt lat="44.46652" lon="6.24138">
        <ele>714</ele>
        <time>2020-04-04T16:15:06Z</time>
      </trkpt>
      <trkpt lat="44.46653" lon="6.24085">
        <ele>713</ele>
        <time>2020-04-04T16:15:12Z</time>
      </trkpt>
      <trkpt lat="44.46648" lon="6.2404">
        <ele>717</ele>
        <time>2020-04-04T16:15:18Z</time>
      </trkpt>
      <trkpt lat="44.46645" lon="6.24002">
        <ele>717</ele>
        <time>2020-04-04T16:15:23Z</time>
      </trkpt>
      <trkpt lat="44.46635" lon="6.23965">
        <ele>715</ele>
        <time>2020-04-04T16:15:28Z</time>
      </trkpt>
      <trkpt lat="44.46621" lon="6.23917">
        <ele>712</ele>
        <time>2020-04-04T16:15:34Z</time>
      </trkpt>
      <trkpt lat="44.46609" lon="6.23874">
        <ele>714</ele>
        <time>2020-04-04T16:15:40Z</time>
      </trkpt>
      <trkpt lat="44.46599" lon="6.23837">
        <ele>713</ele>
        <time>2020-04-04T16:15:46Z</time>
      </trkpt>
      <trkpt lat="44.46601" lon="6.23829">
        <ele>714</ele>
        <time>2020-04-04T16:15:52Z</time>
      </trkpt>
      <trkpt lat="44.46597" lon="6.23832">
        <ele>717</ele>
        <time>2020-04-04T16:15:58Z</time>
      </trkpt>
      <trkpt lat="44.466" lon="6.23837">
        <ele>719</ele>
        <time>2020-04-04T16:16:04Z</time>
      </trkpt>
      <trkpt lat="44.46604" lon="6.23848">
        <ele>720</ele>
        <time>2020-04-04T16:16:09Z</time>
      </trkpt>
      <trkpt lat="44.46613" lon="6.23856">
        <ele>721</ele>
        <time>2020-04-04T16:16:14Z</time>
      </trkpt>
      <trkpt lat="44.46621" lon="6.23858">
        <ele>725</ele>
        <time>2020-04-04T16:16:19Z</time>
      </trkpt>
      <trkpt lat="44.46627" lon="6.23843">
        <ele>727</ele>
        <time>2020-04-04T16:16:25Z</time>
      </trkpt>
      <trkpt lat="44.46629" lon="6.23828">
        <ele>728</ele>
        <time>2020-04-04T16:16:31Z</time>
      </trkpt>
      <trkpt lat="44.46634" lon="6.23828">
        <ele>728</ele>
        <time>2020-04-04T16:16:36Z</time>
      </trkpt>
      <trkpt lat="44.46627" lon="6.23851">
        <ele>728</ele>
        <time>2020-04-04T16:16:42Z</time>
      </trkpt>
      <trkpt lat="44.46615" lon="6.23851">
        <ele>728</ele>
        <time>2020-04-04T16:16:47Z</time>
      </trkpt>
      <trkpt lat="44.46611" lon="6.23833">
        <ele>729</ele>
        <time>2020-04-04T16:16:53Z</time>
      </trkpt>
      <trkpt lat="44.46606" lon="6.23829">
        <ele>730</ele>
        <time>2020-04-04T16:16:58Z</time>
      </trkpt>
      <trkpt lat="44.46605" lon="6.2383">
        <ele>727</ele>
        <time>2020-04-04T16:17:03Z</time>
      </trkpt>
      <trkpt lat="44.466" lon="6.23825">
        <ele>725</ele>
        <time>2020-04-04T16:17:09Z</time>
      </trkpt>
      <trkpt lat="44.46593" lon="6.23784">
        <ele>722</ele>
        <time>2020-04-04T16:17:18Z</time>
      </trkpt>
      <trkpt lat="44.46593" lon="6.2375">
        <ele>721</ele>
        <time>2020-04-04T16:17:23Z</time>
      </trkpt>
      <trkpt lat="44.46602" lon="6.23719">
        <ele>720</ele>
        <time>2020-04-04T16:17:29Z</time>
      </trkpt>
      <trkpt lat="44.46597" lon="6.23691">
        <ele>718</ele>
        <time>2020-04-04T16:17:34Z</time>
      </trkpt>
      <trkpt lat="44.46592" lon="6.23662">
        <ele>719</ele>
        <time>2020-04-04T16:17:39Z</time>
      </trkpt>
      <trkpt lat="44.46587" lon="6.23627">
        <ele>716</ele>
        <time>2020-04-04T16:17:45Z</time>
      </trkpt>
      <trkpt lat="44.46583" lon="6.23591">
        <ele>717</ele>
        <time>2020-04-04T16:17:51Z</time>
      </trkpt>
      <trkpt lat="44.46582" lon="6.23556">
        <ele>716</ele>
        <time>2020-04-04T16:17:57Z</time>
      </trkpt>
      <trkpt lat="44.46583" lon="6.23527">
        <ele>718</ele>
        <time>2020-04-04T16:18:03Z</time>
      </trkpt>
      <trkpt lat="44.46586" lon="6.23506">
        <ele>719</ele>
        <time>2020-04-04T16:18:08Z</time>
      </trkpt>
      <trkpt lat="44.46593" lon="6.23491">
        <ele>720</ele>
        <time>2020-04-04T16:18:13Z</time>
      </trkpt>
      <trkpt lat="44.46608" lon="6.23475">
        <ele>723</ele>
        <time>2020-04-04T16:18:20Z</time>
      </trkpt>
      <trkpt lat="44.46617" lon="6.2345">
        <ele>725</ele>
        <time>2020-04-04T16:18:25Z</time>
      </trkpt>
      <trkpt lat="44.46619" lon="6.23424">
        <ele>725</ele>
        <time>2020-04-04T16:18:30Z</time>
      </trkpt>
      <trkpt lat="44.4662" lon="6.23399">
        <ele>728</ele>
        <time>2020-04-04T16:18:35Z</time>
      </trkpt>
      <trkpt lat="44.4663" lon="6.23383">
        <ele>729</ele>
        <time>2020-04-04T16:18:41Z</time>
      </trkpt>
      <trkpt lat="44.46644" lon="6.23382">
        <ele>728</ele>
        <time>2020-04-04T16:18:47Z</time>
      </trkpt>
      <trkpt lat="44.46663" lon="6.23376">
        <ele>727</ele>
        <time>2020-04-04T16:18:52Z</time>
      </trkpt>
      <trkpt lat="44.46678" lon="6.23372">
        <ele>728</ele>
        <time>2020-04-04T16:18:57Z</time>
      </trkpt>
      <trkpt lat="44.46694" lon="6.23371">
        <ele>734</ele>
        <time>2020-04-04T16:19:03Z</time>
      </trkpt>
      <trkpt lat="44.46713" lon="6.2337">
        <ele>734</ele>
        <time>2020-04-04T16:19:09Z</time>
      </trkpt>
      <trkpt lat="44.46727" lon="6.23372">
        <ele>742</ele>
        <time>2020-04-04T16:19:15Z</time>
      </trkpt>
      <trkpt lat="44.4674" lon="6.23356">
        <ele>742</ele>
        <time>2020-04-04T16:19:21Z</time>
      </trkpt>
      <trkpt lat="44.46753" lon="6.23341">
        <ele>746</ele>
        <time>2020-04-04T16:19:27Z</time>
      </trkpt>
      <trkpt lat="44.46769" lon="6.23326">
        <ele>745</ele>
        <time>2020-04-04T16:19:32Z</time>
      </trkpt>
      <trkpt lat="44.4678" lon="6.2331">
        <ele>745</ele>
        <time>2020-04-04T16:19:37Z</time>
      </trkpt>
      <trkpt lat="44.46792" lon="6.23298">
        <ele>745</ele>
        <time>2020-04-04T16:19:42Z</time>
      </trkpt>
      <trkpt lat="44.46803" lon="6.23288">
        <ele>745</ele>
        <time>2020-04-04T16:19:47Z</time>
      </trkpt>
      <trkpt lat="44.46816" lon="6.23273">
        <ele>746</ele>
        <time>2020-04-04T16:19:53Z</time>
      </trkpt>
      <trkpt lat="44.46827" lon="6.23259">
        <ele>747</ele>
        <time>2020-04-04T16:19:59Z</time>
      </trkpt>
      <trkpt lat="44.46836" lon="6.23249">
        <ele>747</ele>
        <time>2020-04-04T16:20:04Z</time>
      </trkpt>
      <trkpt lat="44.46847" lon="6.23237">
        <ele>748</ele>
        <time>2020-04-04T16:20:10Z</time>
      </trkpt>
      <trkpt lat="44.46856" lon="6.23228">
        <ele>751</ele>
        <time>2020-04-04T16:20:15Z</time>
      </trkpt>
      <trkpt lat="44.46859" lon="6.23214">
        <ele>753</ele>
        <time>2020-04-04T16:20:21Z</time>
      </trkpt>
      <trkpt lat="44.46863" lon="6.23203">
        <ele>750</ele>
        <time>2020-04-04T16:20:26Z</time>
      </trkpt>
      <trkpt lat="44.46864" lon="6.23201">
        <ele>749</ele>
        <time>2020-04-04T16:20:32Z</time>
      </trkpt>
      <trkpt lat="44.46865" lon="6.232">
        <ele>749</ele>
        <time>2020-04-04T16:20:38Z</time>
      </trkpt>
    </trkseg>
  </trk>
</gpx>